Time,TemperatureF,DewpointF,PressureIn,WindDirection,WindDirectionDegrees,WindSpeedMPH,WindSpeedGustMPH,Humidity,HourlyPrecipIn,Conditions,Clouds,dailyrainin,SoftwareType,DateUTC
2013-06-12 00:00:00,74.0,63.6,29.85,SE,135,2.0,4.6,70,0.00,OVC,,0.00,WeatherDisplay:10.37,2013-06-12 05:00:00,
2013-06-12 00:04:00,74.0,63.6,29.85,East,90,0.3,3.0,70,0.00,OVC,,0.00,WeatherDisplay:10.37,2013-06-12 05:04:00,
2013-06-12 00:05:00,74.0,63.6,29.85,ESE,112,3.4,8.0,70,0.00,OVC,,0.00,WeatherDisplay:10.37,2013-06-12 05:05:00,
2013-06-12 00:09:00,75.0,64.5,29.85,SE,135,0.1,4.6,70,0.00,OVC,,0.00,WeatherDisplay:10.37,2013-06-12 05:09:00,
2013-06-12 00:10:00,75.0,64.1,29.85,SE,135,0.9,3.5,69,0.00,OVC,,0.00,WeatherDisplay:10.37,2013-06-12 05:10:00,
2013-06-12 00:14:00,75.0,63.7,29.84,ESE,112,4.0,8.1,68,0.00,OVC,,0.00,WeatherDisplay:10.37,2013-06-12 05:14:00,
2013-06-12 00:15:00,75.0,63.7,29.84,ESE,112,2.3,4.6,68,0.00,OVC,,0.00,WeatherDisplay:10.37,2013-06-12 05:15:00,
2013-06-12 00:20:00,75.0,63.7,29.84,ESE,112,1.1,4.6,68,0.00,OVC,,0.00,WeatherDisplay:10.37,2013-06-12 05:20:00,
2013-06-12 00:21:00,75.0,63.7,29.84,East,90,3.6,5.8,68,0.00,OVC,,0.00,WeatherDisplay:10.37,2013-06-12 05:21:00,
2013-06-12 00:25:00,75.0,63.7,29.83,East,90,3.2,4.6,68,0.00,OVC,,0.00,WeatherDisplay:10.37,2013-06-12 05:25:00,
2013-06-12 00:26:00,75.0,63.7,29.83,SE,135,1.9,5.8,68,0.00,OVC,,0.00,WeatherDisplay:10.37,2013-06-12 05:26:00,
2013-06-12 00:27:00,75.0,63.7,29.83,East,90,1.4,6.0,68,0.00,OVC,,0.00,WeatherDisplay:10.37,2013-06-12 05:27:00,
2013-06-12 00:30:00,75.0,63.7,29.83,SSE,157,2.1,5.8,68,0.00,OVC,,0.00,WeatherDisplay:10.37,2013-06-12 05:30:00,
2013-06-12 00:31:00,75.0,63.7,29.83,SW,225,3.3,5.0,68,0.00,OVC,,0.00,WeatherDisplay:10.37,2013-06-12 05:31:00,
2013-06-12 00:32:00,75.0,63.3,29.83,South,180,3.1,5.8,67,0.00,OVC,,0.00,WeatherDisplay:10.37,2013-06-12 05:32:00,
2013-06-12 00:35:00,75.0,63.3,29.82,ESE,112,4.7,9.2,67,0.00,OVC,,0.00,WeatherDisplay:10.37,2013-06-12 05:35:00,
2013-06-12 00:36:00,75.0,63.3,29.82,SSE,157,4.1,6.9,67,0.00,OVC,,0.00,WeatherDisplay:10.37,2013-06-12 05:36:00,
2013-06-12 00:37:00,75.0,63.3,29.82,South,180,3.4,6.9,67,0.00,OVC,,0.00,WeatherDisplay:10.37,2013-06-12 05:37:00,
2013-06-12 00:40:00,76.0,64.2,29.82,ENE,67,4.5,11.5,67,0.00,OVC,,0.00,WeatherDisplay:10.37,2013-06-12 05:40:00,
2013-06-12 00:41:00,76.0,64.2,29.82,South,180,3.1,8.1,67,0.00,OVC,,0.00,WeatherDisplay:10.37,2013-06-12 05:41:00,
2013-06-12 00:42:00,76.0,64.2,29.82,SE,135,4.8,10.4,67,0.00,OVC,,0.00,WeatherDisplay:10.37,2013-06-12 05:42:00,
2013-06-12 00:43:00,76.0,64.2,29.83,ESE,112,3.2,8.1,67,0.00,OVC,,0.00,WeatherDisplay:10.37,2013-06-12 05:43:00,
2013-06-12 00:46:00,76.0,63.8,29.83,ESE,112,4.3,6.0,66,0.00,OVC,,0.00,WeatherDisplay:10.37,2013-06-12 05:46:00,
2013-06-12 00:47:00,76.0,63.8,29.83,SE,135,5.4,8.1,66,0.00,OVC,,0.00,WeatherDisplay:10.37,2013-06-12 05:47:00,
2013-06-12 00:48:00,76.0,63.8,29.83,SSE,157,5.3,9.2,66,0.00,OVC,,0.00,WeatherDisplay:10.37,2013-06-12 05:48:00,
2013-06-12 00:49:00,76.0,63.8,29.83,ESE,112,4.6,7.0,66,0.00,OVC,,0.00,WeatherDisplay:10.37,2013-06-12 05:49:00,
2013-06-12 00:52:00,76.0,63.8,29.83,ESE,112,3.7,6.9,66,0.00,OVC,,0.00,WeatherDisplay:10.37,2013-06-12 05:52:00,
2013-06-12 00:53:00,76.0,63.8,29.82,ENE,67,4.4,6.9,66,0.00,OVC,,0.00,WeatherDisplay:10.37,2013-06-12 05:53:00,
2013-06-12 00:54:00,76.0,64.2,29.82,ESE,112,4.0,7.0,67,0.00,OVC,,0.00,WeatherDisplay:10.37,2013-06-12 05:54:00,
2013-06-12 00:57:00,76.0,64.2,29.82,SE,135,3.4,5.8,67,0.00,OVC,,0.00,WeatherDisplay:10.37,2013-06-12 05:57:00,
2013-06-12 00:58:00,76.0,64.2,29.82,ESE,112,3.6,5.8,67,0.00,OVC,,0.00,WeatherDisplay:10.37,2013-06-12 05:58:00,
2013-06-12 00:59:00,76.0,64.2,29.82,ESE,112,3.8,8.0,67,0.00,OVC,,0.00,WeatherDisplay:10.37,2013-06-12 05:59:00,
2013-06-12 01:02:00,76.0,64.2,29.82,ESE,112,4.0,5.8,67,0.00,OVC,,0.00,WeatherDisplay:10.37,2013-06-12 06:02:00,
2013-06-12 01:03:00,76.0,64.2,29.81,ESE,112,6.2,12.7,67,0.00,OVC,,0.00,WeatherDisplay:10.37,2013-06-12 06:03:00,
2013-06-12 01:04:00,76.0,64.2,29.81,ESE,112,8.6,16.1,67,0.00,OVC,,0.00,WeatherDisplay:10.37,2013-06-12 06:04:00,
2013-06-12 01:07:00,76.0,63.8,29.81,ESE,112,8.8,15.0,66,0.00,OVC,,0.00,WeatherDisplay:10.37,2013-06-12 06:07:00,
2013-06-12 01:08:00,76.0,64.2,29.81,ESE,112,4.3,9.2,67,0.00,OVC,,0.00,WeatherDisplay:10.37,2013-06-12 06:08:00,
2013-06-12 01:09:00,76.0,63.8,29.81,SSE,157,7.3,10.4,66,0.00,OVC,,0.00,WeatherDisplay:10.37,2013-06-12 06:09:00,
2013-06-12 01:10:00,76.0,63.8,29.81,SSE,157,5.6,9.2,66,0.00,OVC,,0.00,WeatherDisplay:10.37,2013-06-12 06:10:00,
2013-06-12 01:12:00,77.0,64.8,29.81,ESE,112,6.5,11.5,66,0.00,OVC,,0.00,WeatherDisplay:10.37,2013-06-12 06:12:00,
2013-06-12 01:13:00,77.0,64.8,29.81,SE,135,4.4,10.4,66,0.00,OVC,,0.00,WeatherDisplay:10.37,2013-06-12 06:13:00,
2013-06-12 01:14:00,77.0,64.8,29.81,SSE,157,3.5,6.9,66,0.00,OVC,,0.00,WeatherDisplay:10.37,2013-06-12 06:14:00,
2013-06-12 01:16:00,77.0,64.8,29.81,ESE,112,4.7,9.2,66,0.00,OVC,,0.00,WeatherDisplay:10.37,2013-06-12 06:16:00,
2013-06-12 01:18:00,77.0,64.8,29.81,East,90,6.4,10.4,66,0.00,OVC,,0.00,WeatherDisplay:10.37,2013-06-12 06:18:00,
2013-06-12 01:19:00,77.0,64.8,29.81,ESE,112,6.4,9.2,66,0.00,OVC,,0.00,WeatherDisplay:10.37,2013-06-12 06:19:00,
2013-06-12 01:22:00,77.0,64.8,29.81,ESE,112,5.6,10.4,66,0.00,OVC,,0.00,WeatherDisplay:10.37,2013-06-12 06:22:00,
2013-06-12 01:23:00,77.0,64.3,29.80,SE,135,8.2,13.8,65,0.00,OVC,,0.00,WeatherDisplay:10.37,2013-06-12 06:23:00,
2013-06-12 01:24:00,77.0,64.8,29.80,SSE,157,5.1,11.5,66,0.00,OVC,,0.00,WeatherDisplay:10.37,2013-06-12 06:24:00,
2013-06-12 01:25:00,77.0,64.8,29.80,SSE,157,4.5,8.1,66,0.00,OVC,,0.00,WeatherDisplay:10.37,2013-06-12 06:25:00,
2013-06-12 01:27:00,77.0,64.8,29.80,SSE,157,3.9,7.0,66,0.00,OVC,,0.00,WeatherDisplay:10.37,2013-06-12 06:27:00,
2013-06-12 01:28:00,77.0,64.8,29.80,North,360,1.9,9.2,66,0.00,OVC,,0.00,WeatherDisplay:10.37,2013-06-12 06:28:00,
2013-06-12 01:29:00,77.0,64.8,29.80,ESE,112,1.0,3.5,66,0.00,OVC,,0.00,WeatherDisplay:10.37,2013-06-12 06:29:00,
2013-06-12 01:30:00,77.0,64.8,29.80,SSE,157,0.7,3.5,66,0.00,OVC,,0.00,WeatherDisplay:10.37,2013-06-12 06:30:00,
2013-06-12 01:32:00,77.0,64.8,29.80,SE,135,4.4,6.9,66,0.00,OVC,,0.00,WeatherDisplay:10.37,2013-06-12 06:32:00,
2013-06-12 01:33:00,77.0,64.8,29.81,South,180,4.5,6.9,66,0.00,OVC,,0.00,WeatherDisplay:10.37,2013-06-12 06:33:00,
2013-06-12 01:34:00,77.0,64.8,29.81,ESE,112,3.3,8.1,66,0.00,OVC,,0.00,WeatherDisplay:10.37,2013-06-12 06:34:00,
2013-06-12 01:35:00,77.0,64.8,29.81,ESE,112,3.4,5.8,66,0.00,OVC,,0.00,WeatherDisplay:10.37,2013-06-12 06:35:00,
2013-06-12 01:37:00,77.0,64.8,29.81,SE,135,4.9,10.4,66,0.00,OVC,,0.00,WeatherDisplay:10.37,2013-06-12 06:37:00,
2013-06-12 01:38:00,77.0,64.8,29.81,SE,135,0.2,9.2,66,0.00,OVC,,0.00,WeatherDisplay:10.37,2013-06-12 06:38:00,
2013-06-12 01:39:00,77.0,64.8,29.81,ENE,67,1.3,5.0,66,0.00,OVC,,0.00,WeatherDisplay:10.37,2013-06-12 06:39:00,
2013-06-12 01:40:00,77.0,64.8,29.81,NNW,337,3.1,5.8,66,0.00,OVC,,0.00,WeatherDisplay:10.37,2013-06-12 06:40:00,
2013-06-12 01:42:00,77.0,64.8,29.83,ENE,67,0.3,3.5,66,0.00,OVC,,0.00,WeatherDisplay:10.37,2013-06-12 06:42:00,
2013-06-12 01:43:00,76.0,63.8,29.83,NNE,22,5.3,5.3,66,0.00,OVC,,0.00,WeatherDisplay:10.37,2013-06-12 06:43:00,
2013-06-12 01:44:00,76.0,63.8,29.83,North,360,5.0,8.0,66,0.00,OVC,,0.00,WeatherDisplay:10.37,2013-06-12 06:44:00,
2013-06-12 01:45:00,76.0,63.8,29.83,North,360,5.2,8.1,66,0.00,OVC,,0.00,WeatherDisplay:10.37,2013-06-12 06:45:00,
2013-06-12 01:46:00,76.0,64.2,29.83,NNE,22,4.3,8.1,67,0.00,OVC,,0.00,WeatherDisplay:10.37,2013-06-12 06:46:00,
2013-06-12 01:48:00,76.0,64.2,29.83,NNW,337,3.8,4.6,67,0.00,OVC,,0.00,WeatherDisplay:10.37,2013-06-12 06:48:00,
2013-06-12 01:49:00,76.0,64.2,29.83,NNW,337,5.0,5.8,67,0.00,OVC,,0.00,WeatherDisplay:10.37,2013-06-12 06:49:00,
2013-06-12 01:50:00,76.0,64.2,29.83,NNW,337,4.1,5.8,67,0.00,OVC,,0.00,WeatherDisplay:10.37,2013-06-12 06:50:00,
2013-06-12 01:51:00,76.0,64.2,29.83,NNW,337,1.8,3.5,67,0.00,OVC,,0.00,WeatherDisplay:10.37,2013-06-12 06:51:00,
2013-06-12 01:53:00,77.0,65.2,29.85,ESE,112,5.1,6.0,67,0.00,OVC,,0.00,WeatherDisplay:10.37,2013-06-12 06:53:00,
2013-06-12 01:55:00,76.0,64.2,29.85,ESE,112,5.8,6.9,67,0.00,OVC,,0.00,WeatherDisplay:10.37,2013-06-12 06:55:00,
2013-06-12 01:57:00,76.0,64.2,29.85,ENE,67,2.2,4.6,67,0.00,OVC,,0.00,WeatherDisplay:10.37,2013-06-12 06:57:00,
2013-06-12 01:58:00,76.0,64.7,29.85,ENE,67,0.0,2.3,68,0.00,OVC,,0.00,WeatherDisplay:10.37,2013-06-12 06:58:00,
2013-06-12 01:59:00,76.0,64.7,29.85,NW,315,2.3,3.5,68,0.00,OVC,,0.00,WeatherDisplay:10.37,2013-06-12 06:59:00,
2013-06-12 02:00:00,76.0,64.7,29.85,NW,315,0.5,3.5,68,0.00,OVC,,0.00,WeatherDisplay:10.37,2013-06-12 07:00:00,
2013-06-12 02:02:00,76.0,65.1,29.84,ENE,67,4.7,9.2,69,0.00,OVC,,0.00,WeatherDisplay:10.37,2013-06-12 07:02:00,
2013-06-12 02:03:00,76.0,65.1,29.84,ENE,67,2.6,6.9,69,0.00,OVC,,0.00,WeatherDisplay:10.37,2013-06-12 07:03:00,
2013-06-12 02:04:00,76.0,65.1,29.84,WNW,292,3.1,3.5,69,0.00,OVC,,0.00,WeatherDisplay:10.37,2013-06-12 07:04:00,
2013-06-12 02:05:00,76.0,65.1,29.84,WNW,292,4.8,6.0,69,0.00,OVC,,0.00,WeatherDisplay:10.37,2013-06-12 07:05:00,
2013-06-12 02:07:00,76.0,65.1,29.84,West,270,0.7,4.6,69,0.00,OVC,,0.00,WeatherDisplay:10.37,2013-06-12 07:07:00,
2013-06-12 02:09:00,76.0,65.1,29.84,West,270,0.5,2.3,69,0.00,OVC,,0.00,WeatherDisplay:10.37,2013-06-12 07:09:00,
2013-06-12 02:10:00,76.0,65.1,29.84,West,270,1.1,4.0,69,0.00,OVC,,0.00,WeatherDisplay:10.37,2013-06-12 07:10:00,
2013-06-12 02:13:00,76.0,65.1,29.86,South,180,1.0,3.5,69,0.00,OVC,,0.00,WeatherDisplay:10.37,2013-06-12 07:13:00,
2013-06-12 02:14:00,76.0,65.1,29.86,SSE,157,4.6,5.0,69,0.00,OVC,,0.00,WeatherDisplay:10.37,2013-06-12 07:14:00,
2013-06-12 02:15:00,76.0,65.1,29.86,SE,135,3.8,5.8,69,0.00,OVC,,0.00,WeatherDisplay:10.37,2013-06-12 07:15:00,
2013-06-12 02:16:00,76.0,65.1,29.86,SE,135,3.7,5.8,69,0.00,OVC,,0.00,WeatherDisplay:10.37,2013-06-12 07:16:00,
2013-06-12 02:18:00,76.0,65.1,29.86,SE,135,0.0,1.2,69,0.00,OVC,,0.00,WeatherDisplay:10.37,2013-06-12 07:18:00,
2013-06-12 02:20:00,75.0,64.1,29.86,SE,135,0.0,0.0,69,0.00,OVC,,0.00,WeatherDisplay:10.37,2013-06-12 07:20:00,
2013-06-12 02:21:00,75.0,64.5,29.86,SSW,202,0.0,0.0,70,0.00,OVC,,0.00,WeatherDisplay:10.37,2013-06-12 07:21:00,
2013-06-12 02:23:00,75.0,64.5,29.85,SSW,202,0.5,2.3,70,0.00,OVC,,0.00,WeatherDisplay:10.37,2013-06-12 07:23:00,
2013-06-12 02:25:00,75.0,64.5,29.85,East,90,0.2,2.0,70,0.00,OVC,,0.00,WeatherDisplay:10.37,2013-06-12 07:25:00,
2013-06-12 02:26:00,75.0,64.5,29.85,NNW,337,0.8,4.0,70,0.00,OVC,,0.00,WeatherDisplay:10.37,2013-06-12 07:26:00,
2013-06-12 02:29:00,75.0,65.0,29.85,NNW,337,0.0,0.0,71,0.00,OVC,,0.00,WeatherDisplay:10.37,2013-06-12 07:29:00,
2013-06-12 02:30:00,75.0,65.4,29.85,NNW,337,0.0,0.0,72,0.00,OVC,,0.00,WeatherDisplay:10.37,2013-06-12 07:30:00,
2013-06-12 02:31:00,75.0,65.0,29.85,NNW,337,0.0,0.0,71,0.00,OVC,,0.00,WeatherDisplay:10.37,2013-06-12 07:31:00,
2013-06-12 02:32:00,75.0,65.4,29.85,NNW,337,0.0,0.0,72,0.00,OVC,,0.00,WeatherDisplay:10.37,2013-06-12 07:32:00,
2013-06-12 02:34:00,75.0,65.0,29.85,NNW,337,0.0,0.0,71,0.00,OVC,,0.00,WeatherDisplay:10.37,2013-06-12 07:34:00,
2013-06-12 02:35:00,74.0,64.4,29.85,ENE,67,0.1,0.0,72,0.00,OVC,,0.00,WeatherDisplay:10.37,2013-06-12 07:35:00,
2013-06-12 02:36:00,74.0,64.4,29.85,NNW,337,0.3,4.0,72,0.00,OVC,,0.00,WeatherDisplay:10.37,2013-06-12 07:36:00,
2013-06-12 02:37:00,74.0,64.8,29.85,WNW,292,2.9,4.0,73,0.00,OVC,,0.00,WeatherDisplay:10.37,2013-06-12 07:37:00,
2013-06-12 02:39:00,74.0,64.8,29.85,WNW,292,1.5,3.5,73,0.00,OVC,,0.00,WeatherDisplay:10.37,2013-06-12 07:39:00,
2013-06-12 02:41:00,74.0,64.8,29.85,WNW,292,0.0,0.0,73,0.00,OVC,,0.00,WeatherDisplay:10.37,2013-06-12 07:41:00,
2013-06-12 02:42:00,74.0,64.8,29.85,WNW,292,0.0,0.0,73,0.00,OVC,,0.00,WeatherDisplay:10.37,2013-06-12 07:42:00,
2013-06-12 02:44:00,74.0,64.8,29.85,WNW,292,0.0,0.0,73,0.00,OVC,,0.00,WeatherDisplay:10.37,2013-06-12 07:44:00,
2013-06-12 02:46:00,74.0,64.8,29.85,WNW,292,0.0,0.0,73,0.00,OVC,,0.00,WeatherDisplay:10.37,2013-06-12 07:46:00,
2013-06-12 02:47:00,74.0,64.8,29.85,WNW,292,0.0,0.0,73,0.00,OVC,,0.00,WeatherDisplay:10.37,2013-06-12 07:47:00,
2013-06-12 02:49:00,73.0,64.6,29.85,WNW,292,0.0,0.0,75,0.00,OVC,,0.00,WeatherDisplay:10.37,2013-06-12 07:49:00,
2013-06-12 02:52:00,73.0,65.7,29.85,WNW,292,0.0,0.0,78,0.00,OVC,,0.00,WeatherDisplay:10.37,2013-06-12 07:52:00,
2013-06-12 02:54:00,72.0,64.8,29.85,WNW,292,0.0,0.0,78,0.00,OVC,,0.00,WeatherDisplay:10.37,2013-06-12 07:54:00,
2013-06-12 02:57:00,72.0,65.1,29.85,WNW,292,0.0,0.0,79,0.00,OVC,,0.00,WeatherDisplay:10.37,2013-06-12 07:57:00,
2013-06-12 02:58:00,72.0,65.1,29.85,WNW,292,0.0,0.0,79,0.00,OVC,,0.00,WeatherDisplay:10.37,2013-06-12 07:58:00,
2013-06-12 02:59:00,72.0,65.1,29.85,WNW,292,0.0,0.0,79,0.00,OVC,,0.00,WeatherDisplay:10.37,2013-06-12 07:59:00,
2013-06-12 03:02:00,72.0,65.5,29.85,WNW,292,0.0,0.0,80,0.00,OVC,,0.00,WeatherDisplay:10.37,2013-06-12 08:02:00,
2013-06-12 03:03:00,72.0,65.1,29.86,WNW,292,0.0,0.0,79,0.00,OVC,,0.00,WeatherDisplay:10.37,2013-06-12 08:03:00,
2013-06-12 03:04:00,71.0,64.5,29.86,WNW,292,0.0,0.0,80,0.00,OVC,,0.00,WeatherDisplay:10.37,2013-06-12 08:04:00,
2013-06-12 03:05:00,71.0,64.9,29.86,WNW,292,0.0,0.0,81,0.00,OVC,,0.00,WeatherDisplay:10.37,2013-06-12 08:05:00,
2013-06-12 03:07:00,71.0,65.9,29.86,WNW,292,2.6,5.0,84,0.00,OVC,,0.00,WeatherDisplay:10.37,2013-06-12 08:07:00,
2013-06-12 03:08:00,71.0,66.6,29.86,WNW,292,4.5,4.6,86,0.00,OVC,,0.00,WeatherDisplay:10.37,2013-06-12 08:08:00,
2013-06-12 03:09:00,71.0,66.6,29.86,WNW,292,2.2,3.5,86,0.00,OVC,,0.00,WeatherDisplay:10.37,2013-06-12 08:09:00,
2013-06-12 03:10:00,71.0,66.6,29.86,WNW,292,0.2,3.5,86,0.00,OVC,,0.00,WeatherDisplay:10.37,2013-06-12 08:10:00,
2013-06-12 03:12:00,71.0,66.3,29.86,WNW,292,0.0,0.0,85,0.00,OVC,,0.00,WeatherDisplay:10.37,2013-06-12 08:12:00,
2013-06-12 03:13:00,71.0,65.9,29.86,WNW,292,0.0,0.0,84,0.00,OVC,,0.00,WeatherDisplay:10.37,2013-06-12 08:13:00,
2013-06-12 03:14:00,71.0,66.3,29.86,WNW,292,0.0,0.0,85,0.00,OVC,,0.00,WeatherDisplay:10.37,2013-06-12 08:14:00,
2013-06-12 03:15:00,71.0,66.3,29.86,WNW,292,0.0,0.0,85,0.00,OVC,,0.00,WeatherDisplay:10.37,2013-06-12 08:15:00,
2013-06-12 03:17:00,70.0,65.6,29.86,WNW,292,0.0,0.0,86,0.00,OVC,,0.00,WeatherDisplay:10.37,2013-06-12 08:17:00,
2013-06-12 03:18:00,70.0,65.6,29.86,WNW,292,0.0,0.0,86,0.00,OVC,,0.00,WeatherDisplay:10.37,2013-06-12 08:18:00,
2013-06-12 03:21:00,71.2,65.8,29.85,WNW,289,0.5,4.6,83,0.00,OVC,,0.00,WeatherDisplay:10.37,2013-06-12 08:21:00,
2013-06-12 03:22:00,71.2,65.8,29.85,WNW,289,0.5,4.6,83,0.00,OVC,,0.00,WeatherDisplay:10.37,2013-06-12 08:22:00,
2013-06-12 03:23:00,70.0,66.3,29.87,South,180,1.4,5.0,88,0.00,OVC,,0.00,WeatherDisplay:10.37,2013-06-12 08:23:00,
2013-06-12 03:27:00,70.0,67.3,29.87,SE,135,2.8,4.6,91,0.00,OVC,,0.00,WeatherDisplay:10.37,2013-06-12 08:27:00,
2013-06-12 03:28:00,70.0,67.3,29.87,SE,135,0.2,3.5,91,0.00,OVC,,0.00,WeatherDisplay:10.37,2013-06-12 08:28:00,
2013-06-12 03:29:00,70.0,67.3,29.87,SE,135,0.0,0.0,91,0.00,OVC,,0.00,WeatherDisplay:10.37,2013-06-12 08:29:00,
2013-06-12 03:32:00,70.0,67.6,29.87,SSE,157,3.7,5.0,92,0.00,OVC,,0.00,WeatherDisplay:10.37,2013-06-12 08:32:00,
2013-06-12 03:33:00,70.0,67.6,29.86,SSE,157,3.2,4.6,92,0.00,OVC,,0.00,WeatherDisplay:10.37,2013-06-12 08:33:00,
2013-06-12 03:34:00,70.0,67.6,29.86,SSE,157,3.1,4.0,92,0.00,OVC,,0.00,WeatherDisplay:10.37,2013-06-12 08:34:00,
2013-06-12 03:37:00,70.0,67.6,29.86,SSE,157,1.2,3.5,92,0.00,OVC,,0.00,WeatherDisplay:10.37,2013-06-12 08:37:00,
2013-06-12 03:38:00,70.0,67.6,29.86,SSE,157,0.5,3.5,92,0.00,OVC,,0.00,WeatherDisplay:10.37,2013-06-12 08:38:00,
2013-06-12 03:39:00,70.0,67.6,29.86,SSE,157,0.0,1.2,92,0.00,OVC,,0.00,WeatherDisplay:10.37,2013-06-12 08:39:00,
2013-06-12 03:42:00,70.0,67.6,29.87,SSE,157,0.8,2.3,92,0.00,OVC,,0.00,WeatherDisplay:10.37,2013-06-12 08:42:00,
2013-06-12 03:43:00,70.0,67.6,29.87,SSE,157,1.5,3.5,92,0.00,OVC,,0.00,WeatherDisplay:10.37,2013-06-12 08:43:00,
2013-06-12 03:44:00,70.0,67.9,29.87,SSE,157,0.2,3.5,93,0.00,OVC,,0.00,WeatherDisplay:10.37,2013-06-12 08:44:00,
2013-06-12 03:48:00,70.0,67.6,29.87,SSE,157,0.0,0.0,92,0.00,OVC,,0.00,WeatherDisplay:10.37,2013-06-12 08:48:00,
2013-06-12 03:49:00,70.0,68.2,29.87,SSE,157,1.5,3.5,94,0.00,OVC,,0.00,WeatherDisplay:10.37,2013-06-12 08:49:00,
2013-06-12 03:50:00,70.0,68.5,29.87,SSE,157,3.7,4.0,95,0.00,OVC,,0.00,WeatherDisplay:10.37,2013-06-12 08:50:00,
2013-06-12 03:53:00,70.0,68.5,29.86,South,180,4.2,4.6,95,0.00,OVC,,0.00,WeatherDisplay:10.37,2013-06-12 08:53:00,
2013-06-12 03:54:00,70.0,68.8,29.86,South,180,2.2,4.0,96,0.00,OVC,,0.00,WeatherDisplay:10.37,2013-06-12 08:54:00,
2013-06-12 03:55:00,70.0,68.8,29.86,South,180,3.7,4.0,96,0.00,OVC,,0.00,WeatherDisplay:10.37,2013-06-12 08:55:00,
2013-06-12 03:58:00,70.0,68.8,29.86,South,180,4.6,5.8,96,0.00,OVC,,0.00,WeatherDisplay:10.37,2013-06-12 08:58:00,
2013-06-12 03:59:00,70.0,68.5,29.86,SSW,202,1.5,4.6,95,0.00,OVC,,0.00,WeatherDisplay:10.37,2013-06-12 08:59:00,
2013-06-12 04:00:00,70.0,68.5,29.86,SSW,202,0.7,3.5,95,0.00,OVC,,0.00,WeatherDisplay:10.37,2013-06-12 09:00:00,
2013-06-12 04:04:00,70.0,68.5,29.87,SSE,157,1.2,3.5,95,0.00,OVC,,0.00,WeatherDisplay:10.37,2013-06-12 09:04:00,
2013-06-12 04:05:00,70.0,68.5,29.87,SSE,157,0.0,0.0,95,0.00,OVC,,0.00,WeatherDisplay:10.37,2013-06-12 09:05:00,
2013-06-12 04:09:00,70.0,68.2,29.87,SSE,157,0.0,0.0,94,0.00,OVC,,0.00,WeatherDisplay:10.37,2013-06-12 09:09:00,
2013-06-12 04:10:00,70.0,68.2,29.87,SSE,157,0.0,0.0,94,0.00,OVC,,0.00,WeatherDisplay:10.37,2013-06-12 09:10:00,
2013-06-12 04:14:00,70.0,68.2,29.86,ENE,67,2.6,3.5,94,0.00,OVC,,0.00,WeatherDisplay:10.37,2013-06-12 09:14:00,
2013-06-12 04:15:00,70.0,68.5,29.86,NNE,22,5.4,6.9,95,0.00,OVC,,0.00,WeatherDisplay:10.37,2013-06-12 09:15:00,
2013-06-12 04:16:00,70.0,68.2,29.86,NNW,337,4.6,6.9,94,0.00,OVC,,0.00,WeatherDisplay:10.37,2013-06-12 09:16:00,
2013-06-12 04:19:00,70.0,68.2,29.86,North,360,0.2,2.3,94,0.00,OVC,,0.00,WeatherDisplay:10.37,2013-06-12 09:19:00,
2013-06-12 04:20:00,70.0,68.2,29.86,SSE,157,1.2,3.0,94,0.00,OVC,,0.00,WeatherDisplay:10.37,2013-06-12 09:20:00,
2013-06-12 04:21:00,70.0,68.2,29.86,SSE,157,2.2,3.5,94,0.00,OVC,,0.00,WeatherDisplay:10.37,2013-06-12 09:21:00,
2013-06-12 04:25:00,70.0,67.9,29.85,ENE,67,2.0,4.0,93,0.00,OVC,,0.00,WeatherDisplay:10.37,2013-06-12 09:25:00,
2013-06-12 04:26:00,70.0,67.6,29.85,ENE,67,3.9,3.9,92,0.00,OVC,,0.00,WeatherDisplay:10.37,2013-06-12 09:26:00,
2013-06-12 04:30:00,71.0,68.2,29.85,ENE,67,4.1,4.6,91,0.00,OVC,,0.00,WeatherDisplay:10.37,2013-06-12 09:30:00,
2013-06-12 04:31:00,71.0,68.2,29.85,ENE,67,3.8,4.6,91,0.00,OVC,,0.00,WeatherDisplay:10.37,2013-06-12 09:31:00,
2013-06-12 04:35:00,71.0,67.3,29.83,South,180,5.4,5.8,88,0.00,OVC,,0.00,WeatherDisplay:10.37,2013-06-12 09:35:00,
2013-06-12 04:36:00,71.0,67.3,29.83,South,180,5.2,5.8,88,0.00,OVC,,0.00,WeatherDisplay:10.37,2013-06-12 09:36:00,
2013-06-12 04:40:00,71.0,66.9,29.83,East,90,1.5,3.5,87,0.00,OVC,,0.00,WeatherDisplay:10.37,2013-06-12 09:40:00,
2013-06-12 04:41:00,71.0,66.9,29.83,East,90,1.8,3.5,87,0.00,OVC,,0.00,WeatherDisplay:10.37,2013-06-12 09:41:00,
2013-06-12 04:42:00,71.0,66.9,29.83,East,90,0.2,3.5,87,0.00,OVC,,0.00,WeatherDisplay:10.37,2013-06-12 09:42:00,
2013-06-12 04:45:00,71.0,66.9,29.84,East,90,1.0,3.5,87,0.00,OVC,,0.00,WeatherDisplay:10.37,2013-06-12 09:45:00,
2013-06-12 04:46:00,71.0,66.9,29.84,East,90,1.0,3.5,87,0.00,OVC,,0.00,WeatherDisplay:10.37,2013-06-12 09:46:00,
2013-06-12 04:47:00,71.0,66.9,29.84,SSE,157,0.7,3.5,87,0.00,OVC,,0.00,WeatherDisplay:10.37,2013-06-12 09:47:00,
2013-06-12 04:50:00,71.0,66.9,29.84,East,90,0.6,3.5,87,0.00,OVC,,0.00,WeatherDisplay:10.37,2013-06-12 09:50:00,
2013-06-12 04:51:00,71.0,66.9,29.84,East,90,0.6,2.3,87,0.00,OVC,,0.00,WeatherDisplay:10.37,2013-06-12 09:51:00,
2013-06-12 04:52:00,71.0,66.9,29.84,SSE,157,1.3,3.5,87,0.00,OVC,,0.00,WeatherDisplay:10.37,2013-06-12 09:52:00,
2013-06-12 04:56:00,71.0,66.6,29.83,ESE,112,3.2,8.1,86,0.00,OVC,,0.00,WeatherDisplay:10.37,2013-06-12 09:56:00,
2013-06-12 04:57:00,72.0,67.6,29.83,ESE,112,2.8,5.8,86,0.00,OVC,,0.00,WeatherDisplay:10.37,2013-06-12 09:57:00,
2013-06-12 04:58:00,72.0,67.6,29.83,ESE,112,4.4,6.0,86,0.00,OVC,,0.00,WeatherDisplay:10.37,2013-06-12 09:58:00,
2013-06-12 05:01:00,72.0,66.9,29.83,ESE,112,5.4,8.1,84,0.00,OVC,,0.00,WeatherDisplay:10.37,2013-06-12 10:01:00,
2013-06-12 05:02:00,72.0,66.9,29.83,SE,135,4.9,6.9,84,0.00,OVC,,0.00,WeatherDisplay:10.37,2013-06-12 10:02:00,
2013-06-12 05:03:00,72.0,66.6,29.82,SE,135,4.0,6.9,83,0.00,OVC,,0.00,WeatherDisplay:10.37,2013-06-12 10:03:00,
2013-06-12 05:06:00,72.0,66.6,29.82,North,360,0.0,1.2,83,0.00,OVC,,0.00,WeatherDisplay:10.37,2013-06-12 10:06:00,
2013-06-12 05:07:00,72.0,66.6,29.82,West,270,0.6,4.0,83,0.00,OVC,,0.00,WeatherDisplay:10.37,2013-06-12 10:07:00,
2013-06-12 05:08:00,72.0,66.9,29.82,SSE,157,1.1,3.5,84,0.00,OVC,,0.00,WeatherDisplay:10.37,2013-06-12 10:08:00,
2013-06-12 05:12:00,72.0,66.9,29.82,ESE,112,0.8,3.5,84,0.00,OVC,,0.00,WeatherDisplay:10.37,2013-06-12 10:12:00,
2013-06-12 05:13:00,72.0,66.6,29.82,NW,315,0.0,1.2,83,0.00,OVC,,0.00,WeatherDisplay:10.37,2013-06-12 10:13:00,
2013-06-12 05:17:00,72.0,66.6,29.82,SW,225,0.5,4.6,83,0.00,OVC,,0.00,WeatherDisplay:10.37,2013-06-12 10:17:00,
2013-06-12 05:18:00,72.0,66.6,29.82,ESE,112,2.0,4.6,83,0.00,OVC,,0.00,WeatherDisplay:10.37,2013-06-12 10:18:00,
2013-06-12 05:22:00,72.0,65.8,29.82,WNW,292,3.5,4.6,81,0.00,OVC,,0.00,WeatherDisplay:10.37,2013-06-12 10:22:00,
2013-06-12 05:23:00,73.0,66.8,29.80,WNW,292,0.2,4.6,81,0.00,OVC,,0.00,WeatherDisplay:10.37,2013-06-12 10:23:00,
2013-06-12 05:27:00,73.0,66.5,29.80,SE,135,1.4,3.5,80,0.00,OVC,,0.00,WeatherDisplay:10.37,2013-06-12 10:27:00,
2013-06-12 05:28:00,73.0,66.5,29.80,SE,135,1.9,3.5,80,0.00,OVC,,0.00,WeatherDisplay:10.37,2013-06-12 10:28:00,
2013-06-12 05:29:00,73.0,66.5,29.80,SE,135,1.1,3.5,80,0.00,OVC,,0.00,WeatherDisplay:10.37,2013-06-12 10:29:00,
2013-06-12 05:33:00,73.0,65.7,29.81,SSE,157,4.2,6.9,78,0.00,OVC,,0.00,WeatherDisplay:10.37,2013-06-12 10:33:00,
2013-06-12 05:34:00,73.0,65.7,29.81,ESE,112,3.1,4.0,78,0.00,OVC,,0.00,WeatherDisplay:10.37,2013-06-12 10:34:00,
2013-06-12 05:38:00,74.0,66.3,29.81,ENE,67,0.0,1.2,77,0.00,OVC,,0.00,WeatherDisplay:10.37,2013-06-12 10:38:00,
2013-06-12 05:39:00,74.0,66.3,29.81,WSW,247,0.5,1.2,77,0.00,OVC,,0.00,WeatherDisplay:10.37,2013-06-12 10:39:00,
2013-06-12 05:43:00,74.0,66.0,29.82,ENE,67,3.1,5.8,76,0.00,OVC,,0.00,WeatherDisplay:10.37,2013-06-12 10:43:00,
2013-06-12 05:44:00,74.0,66.3,29.82,ESE,112,4.2,6.0,77,0.00,OVC,,0.00,WeatherDisplay:10.37,2013-06-12 10:44:00,
2013-06-12 05:45:00,74.0,66.3,29.82,ESE,112,2.0,6.9,77,0.00,OVC,,0.00,WeatherDisplay:10.37,2013-06-12 10:45:00,
2013-06-12 05:48:00,74.0,66.0,29.82,East,90,4.3,9.2,76,0.00,OVC,,0.00,WeatherDisplay:10.37,2013-06-12 10:48:00,
2013-06-12 05:49:00,74.0,66.0,29.82,ENE,67,3.5,6.9,76,0.00,OVC,,0.00,WeatherDisplay:10.37,2013-06-12 10:49:00,
2013-06-12 05:50:00,74.0,66.0,29.82,East,90,2.6,5.8,76,0.00,OVC,,0.00,WeatherDisplay:10.37,2013-06-12 10:50:00,
2013-06-12 05:53:00,74.0,65.6,29.82,SE,135,3.9,4.6,75,0.00,OVC,,0.00,WeatherDisplay:10.37,2013-06-12 10:53:00,
2013-06-12 05:54:00,74.0,65.6,29.82,East,90,3.1,4.6,75,0.00,OVC,,0.00,WeatherDisplay:10.37,2013-06-12 10:54:00,
2013-06-12 05:55:00,74.0,66.0,29.82,ENE,67,3.7,8.1,76,0.00,OVC,,0.00,WeatherDisplay:10.37,2013-06-12 10:55:00,
2013-06-12 05:58:00,74.0,66.0,29.82,ENE,67,0.2,3.5,76,0.00,OVC,,0.00,WeatherDisplay:10.37,2013-06-12 10:58:00,
2013-06-12 05:59:00,74.0,66.0,29.82,ENE,67,0.0,2.3,76,0.00,OVC,,0.00,WeatherDisplay:10.37,2013-06-12 10:59:00,
2013-06-12 06:00:00,74.0,66.0,29.82,ENE,67,0.0,0.0,76,0.00,OVC,,0.00,WeatherDisplay:10.37,2013-06-12 11:00:00,
2013-06-12 06:04:00,73.0,65.4,29.83,ESE,112,2.6,3.5,77,0.00,OVC,,0.00,WeatherDisplay:10.37,2013-06-12 11:04:00,
2013-06-12 06:05:00,73.0,65.4,29.83,East,90,3.1,4.0,77,0.00,OVC,,0.00,WeatherDisplay:10.37,2013-06-12 11:05:00,
2013-06-12 06:09:00,73.0,65.7,29.83,East,90,2.1,4.6,78,0.00,OVC,,0.00,WeatherDisplay:10.37,2013-06-12 11:09:00,
2013-06-12 06:10:00,73.0,65.7,29.83,East,90,2.5,5.8,78,0.00,OVC,,0.00,WeatherDisplay:10.37,2013-06-12 11:10:00,
2013-06-12 06:11:00,73.0,65.7,29.83,ESE,112,1.5,5.8,78,0.00,OVC,,0.00,WeatherDisplay:10.37,2013-06-12 11:11:00,
2013-06-12 06:14:00,73.0,66.1,29.82,ESE,112,4.5,5.8,79,0.00,OVC,,0.00,WeatherDisplay:10.37,2013-06-12 11:14:00,
2013-06-12 06:15:00,73.0,66.1,29.82,ENE,67,4.5,5.8,79,0.00,OVC,,0.00,WeatherDisplay:10.37,2013-06-12 11:15:00,
2013-06-12 06:16:00,73.0,66.1,29.82,ESE,112,4.1,5.8,79,0.00,OVC,,0.00,WeatherDisplay:10.37,2013-06-12 11:16:00,
2013-06-12 06:19:00,73.0,66.1,29.82,East,90,0.7,3.5,79,0.00,OVC,,0.00,WeatherDisplay:10.37,2013-06-12 11:19:00,
2013-06-12 06:20:00,73.0,66.1,29.82,East,90,0.7,3.5,79,0.00,OVC,,0.00,WeatherDisplay:10.37,2013-06-12 11:20:00,
2013-06-12 06:21:00,73.0,66.1,29.82,East,90,0.2,3.5,79,0.00,OVC,,0.00,WeatherDisplay:10.37,2013-06-12 11:21:00,
2013-06-12 06:25:00,72.0,65.5,29.82,ESE,112,2.8,4.0,80,0.00,OVC,,0.00,WeatherDisplay:10.37,2013-06-12 11:25:00,
2013-06-12 06:26:00,72.0,65.5,29.82,ESE,112,1.3,3.5,80,0.00,OVC,,0.00,WeatherDisplay:10.37,2013-06-12 11:26:00,
2013-06-12 06:30:00,72.0,65.8,29.82,NE,45,0.4,4.6,81,0.00,OVC,,0.00,WeatherDisplay:10.37,2013-06-12 11:30:00,
2013-06-12 06:31:00,72.0,65.8,29.82,East,90,1.0,3.5,81,0.00,OVC,,0.00,WeatherDisplay:10.37,2013-06-12 11:31:00,
2013-06-12 06:32:00,72.0,65.8,29.82,NE,45,0.6,3.5,81,0.00,OVC,,0.00,WeatherDisplay:10.37,2013-06-12 11:32:00,
2013-06-12 06:35:00,72.0,66.2,29.82,ENE,67,1.7,5.8,82,0.00,OVC,,0.00,WeatherDisplay:10.37,2013-06-12 11:35:00,
2013-06-12 06:36:00,72.0,66.2,29.82,ENE,67,2.6,5.8,82,0.00,OVC,,0.00,WeatherDisplay:10.37,2013-06-12 11:36:00,
2013-06-12 06:37:00,72.0,66.2,29.82,East,90,0.3,1.2,82,0.00,OVC,,0.00,WeatherDisplay:10.37,2013-06-12 11:37:00,
2013-06-12 06:40:00,72.0,66.2,29.82,SSE,157,1.4,4.6,82,0.00,OVC,,0.00,WeatherDisplay:10.37,2013-06-12 11:40:00,
2013-06-12 06:41:00,72.0,66.2,29.82,ESE,112,2.5,3.5,82,0.00,OVC,,0.00,WeatherDisplay:10.37,2013-06-12 11:41:00,
2013-06-12 06:42:00,72.0,66.2,29.82,ESE,112,2.0,4.6,82,0.00,OVC,,0.00,WeatherDisplay:10.37,2013-06-12 11:42:00,
2013-06-12 06:43:00,72.0,66.2,29.84,East,90,2.3,4.6,82,0.00,OVC,,0.00,WeatherDisplay:10.37,2013-06-12 11:43:00,
2013-06-12 06:45:00,72.0,66.2,29.84,ESE,112,0.8,3.5,82,0.00,OVC,,0.00,WeatherDisplay:10.37,2013-06-12 11:45:00,
2013-06-12 06:46:00,72.0,66.2,29.84,ESE,112,0.4,2.3,82,0.00,OVC,,0.00,WeatherDisplay:10.37,2013-06-12 11:46:00,
2013-06-12 06:47:00,72.0,66.2,29.84,ESE,112,0.5,2.3,82,0.00,OVC,,0.00,WeatherDisplay:10.37,2013-06-12 11:47:00,
2013-06-12 06:48:00,72.0,66.2,29.84,SE,135,0.8,2.3,82,0.00,OVC,,0.00,WeatherDisplay:10.37,2013-06-12 11:48:00,
2013-06-12 06:50:00,73.0,67.2,29.84,East,90,2.7,3.5,82,0.00,OVC,,0.00,WeatherDisplay:10.37,2013-06-12 11:50:00,
2013-06-12 06:51:00,73.0,67.2,29.84,East,90,2.8,4.6,82,0.00,OVC,,0.00,WeatherDisplay:10.37,2013-06-12 11:51:00,
2013-06-12 06:52:00,73.0,67.2,29.84,East,90,3.2,6.0,82,0.00,OVC,,0.00,WeatherDisplay:10.37,2013-06-12 11:52:00,
2013-06-12 06:53:00,73.0,67.2,29.83,ENE,67,4.0,5.8,82,0.00,OVC,,0.00,WeatherDisplay:10.37,2013-06-12 11:53:00,
2013-06-12 06:56:00,73.0,67.2,29.83,ESE,112,0.8,3.0,82,0.00,OVC,,0.00,WeatherDisplay:10.37,2013-06-12 11:56:00,
2013-06-12 06:57:00,73.0,67.2,29.83,ENE,67,0.8,3.5,82,0.00,OVC,,0.00,WeatherDisplay:10.37,2013-06-12 11:57:00,
2013-06-12 06:58:00,73.0,67.2,29.83,ESE,112,1.7,4.6,82,0.00,OVC,,0.00,WeatherDisplay:10.37,2013-06-12 11:58:00,
2013-06-12 07:01:00,73.0,67.2,29.83,ENE,67,1.2,1.2,82,0.00,OVC,,0.00,WeatherDisplay:10.37,2013-06-12 12:01:00,
2013-06-12 07:02:00,73.0,67.2,29.83,East,90,1.9,5.0,82,0.00,OVC,,0.00,WeatherDisplay:10.37,2013-06-12 12:02:00,
2013-06-12 07:03:00,73.0,66.5,29.84,SE,135,3.1,4.6,80,0.00,OVC,,0.00,WeatherDisplay:10.37,2013-06-12 12:03:00,
2013-06-12 07:07:00,74.0,67.4,29.84,SSE,157,0.7,1.2,80,0.00,OVC,,0.00,WeatherDisplay:10.37,2013-06-12 12:07:00,
2013-06-12 07:08:00,74.0,67.4,29.84,East,90,0.0,1.2,80,0.00,OVC,,0.00,WeatherDisplay:10.37,2013-06-12 12:08:00,
2013-06-12 07:09:00,74.0,67.4,29.84,SSE,157,1.9,2.0,80,0.00,OVC,,0.00,WeatherDisplay:10.37,2013-06-12 12:09:00,
2013-06-12 07:12:00,74.0,67.1,29.84,SSE,157,0.9,4.0,79,0.00,OVC,,0.00,WeatherDisplay:10.37,2013-06-12 12:12:00,
2013-06-12 07:13:00,74.0,66.7,29.83,ESE,112,1.9,4.6,78,0.00,OVC,,0.00,WeatherDisplay:10.37,2013-06-12 12:13:00,
2013-06-12 07:14:00,74.0,67.1,29.83,ESE,112,0.2,2.3,79,0.00,OVC,,0.00,WeatherDisplay:10.37,2013-06-12 12:14:00,
2013-06-12 07:17:00,74.0,67.1,29.83,South,180,1.1,4.0,79,0.00,OVC,,0.00,WeatherDisplay:10.37,2013-06-12 12:17:00,
2013-06-12 07:18:00,75.0,67.7,29.83,SSE,157,3.7,4.6,78,0.00,OVC,,0.00,WeatherDisplay:10.37,2013-06-12 12:18:00,
2013-06-12 07:19:00,75.0,67.7,29.83,WNW,292,2.2,3.5,78,0.00,OVC,,0.00,WeatherDisplay:10.37,2013-06-12 12:19:00,
2013-06-12 07:22:00,75.0,67.7,29.83,ESE,112,0.3,0.0,78,0.00,OVC,,0.00,WeatherDisplay:10.37,2013-06-12 12:22:00,
2013-06-12 07:23:00,75.0,67.7,29.83,South,180,0.2,3.5,78,0.00,OVC,,0.00,WeatherDisplay:10.37,2013-06-12 12:23:00,
2013-06-12 07:24:00,75.0,68.0,29.83,South,180,0.1,1.2,79,0.00,OVC,,0.00,WeatherDisplay:10.37,2013-06-12 12:24:00,
2013-06-12 07:27:00,75.0,67.7,29.83,ESE,112,0.0,1.2,78,0.00,OVC,,0.00,WeatherDisplay:10.37,2013-06-12 12:27:00,
2013-06-12 07:28:00,75.0,67.7,29.83,SE,135,0.1,2.0,78,0.00,OVC,,0.00,WeatherDisplay:10.37,2013-06-12 12:28:00,
2013-06-12 07:29:00,76.0,69.0,29.83,SE,135,0.2,2.3,79,0.00,OVC,,0.00,WeatherDisplay:10.37,2013-06-12 12:29:00,
2013-06-12 07:33:00,76.0,68.6,29.82,NNE,22,1.4,4.0,78,0.00,OVC,,0.00,WeatherDisplay:10.37,2013-06-12 12:33:00,
2013-06-12 07:34:00,76.0,68.3,29.82,ESE,112,2.8,5.0,77,0.00,OVC,,0.00,WeatherDisplay:10.37,2013-06-12 12:34:00,
2013-06-12 07:35:00,76.0,68.3,29.82,WSW,247,1.4,4.6,77,0.00,OVC,,0.00,WeatherDisplay:10.37,2013-06-12 12:35:00,
2013-06-12 07:38:00,76.0,68.3,29.82,SE,135,1.5,4.6,77,0.00,OVC,,0.00,WeatherDisplay:10.37,2013-06-12 12:38:00,
2013-06-12 07:39:00,76.0,67.9,29.82,ESE,112,2.2,6.9,76,0.00,OVC,,0.00,WeatherDisplay:10.37,2013-06-12 12:39:00,
2013-06-12 07:40:00,76.0,67.9,29.82,South,180,0.5,3.5,76,0.00,OVC,,0.00,WeatherDisplay:10.37,2013-06-12 12:40:00,
2013-06-12 07:43:00,76.0,67.5,29.81,ESE,112,1.8,8.1,75,0.00,OVC,,0.00,WeatherDisplay:10.37,2013-06-12 12:43:00,
2013-06-12 07:44:00,76.0,67.9,29.81,SSW,202,2.2,8.1,76,0.00,OVC,,0.00,WeatherDisplay:10.37,2013-06-12 12:44:00,
2013-06-12 07:46:00,76.0,67.9,29.81,South,180,3.7,4.6,76,0.00,OVC,,0.00,WeatherDisplay:10.37,2013-06-12 12:46:00,
2013-06-12 07:48:00,76.0,67.9,29.81,WSW,247,1.5,4.6,76,0.00,OVC,,0.00,WeatherDisplay:10.37,2013-06-12 12:48:00,
2013-06-12 07:49:00,76.0,67.9,29.81,WSW,247,1.3,4.6,76,0.00,OVC,,0.00,WeatherDisplay:10.37,2013-06-12 12:49:00,
2013-06-12 07:51:00,76.0,67.1,29.81,ESE,112,4.6,8.1,74,0.00,OVC,,0.00,WeatherDisplay:10.37,2013-06-12 12:51:00,
2013-06-12 07:54:00,77.0,68.9,29.81,South,180,0.3,2.3,76,0.00,OVC,,0.00,WeatherDisplay:10.37,2013-06-12 12:54:00,
2013-06-12 07:55:00,77.0,68.9,29.81,South,180,0.0,0.0,76,0.00,OVC,,0.00,WeatherDisplay:10.37,2013-06-12 12:55:00,
2013-06-12 07:56:00,77.0,68.5,29.81,East,90,4.5,6.0,75,0.00,OVC,,0.00,WeatherDisplay:10.37,2013-06-12 12:56:00,
2013-06-12 07:59:00,77.0,68.5,29.81,NW,315,1.3,4.0,75,0.00,OVC,,0.00,WeatherDisplay:10.37,2013-06-12 12:59:00,
2013-06-12 08:00:00,77.0,68.1,29.81,West,270,3.2,5.8,74,0.00,OVC,,0.00,WeatherDisplay:10.37,2013-06-12 13:00:00,
2013-06-12 08:01:00,77.0,68.5,29.81,West,270,0.4,3.5,75,0.00,OVC,,0.00,WeatherDisplay:10.37,2013-06-12 13:01:00,
2013-06-12 08:04:00,78.0,68.2,29.80,East,90,1.9,5.0,72,0.00,OVC,,0.00,WeatherDisplay:10.37,2013-06-12 13:04:00,
2013-06-12 08:05:00,78.0,68.2,29.80,ESE,112,3.4,5.8,72,0.00,OVC,,0.00,WeatherDisplay:10.37,2013-06-12 13:05:00,
2013-06-12 08:07:00,78.0,69.0,29.80,ESE,112,0.0,3.5,74,0.00,OVC,,0.00,WeatherDisplay:10.37,2013-06-12 13:07:00,
2013-06-12 08:10:00,78.0,68.6,29.80,WNW,292,0.7,3.0,73,0.00,OVC,,0.00,WeatherDisplay:10.37,2013-06-12 13:10:00,
2013-06-12 08:11:00,78.0,68.2,29.80,WSW,247,1.9,5.8,72,0.00,OVC,,0.00,WeatherDisplay:10.37,2013-06-12 13:11:00,
2013-06-12 08:12:00,79.0,68.8,29.80,SE,135,3.6,5.8,71,0.00,OVC,,0.00,WeatherDisplay:10.37,2013-06-12 13:12:00,
2013-06-12 08:15:00,79.0,68.8,29.80,SSE,157,0.9,3.5,71,0.00,OVC,,0.00,WeatherDisplay:10.37,2013-06-12 13:15:00,
2013-06-12 08:16:00,79.0,69.2,29.80,SSE,157,0.0,3.5,72,0.00,OVC,,0.00,WeatherDisplay:10.37,2013-06-12 13:16:00,
2013-06-12 08:17:00,79.0,68.8,29.80,South,180,0.4,3.0,71,0.00,OVC,,0.00,WeatherDisplay:10.37,2013-06-12 13:17:00,
2013-06-12 08:20:00,79.0,68.8,29.80,West,270,3.7,6.0,71,0.00,OVC,,0.00,WeatherDisplay:10.37,2013-06-12 13:20:00,
2013-06-12 08:21:00,79.0,68.8,29.80,West,270,4.6,6.0,71,0.00,OVC,,0.00,WeatherDisplay:10.37,2013-06-12 13:21:00,
2013-06-12 08:23:00,79.0,68.8,29.80,West,270,6.6,9.0,71,0.00,OVC,,0.00,WeatherDisplay:10.37,2013-06-12 13:23:00,
2013-06-12 08:25:00,78.0,68.6,29.80,West,270,9.0,11.5,73,0.00,OVC,,0.00,WeatherDisplay:10.37,2013-06-12 13:25:00,
2013-06-12 08:26:00,78.0,68.6,29.80,West,270,8.6,10.4,73,0.00,OVC,,0.00,WeatherDisplay:10.37,2013-06-12 13:26:00,
2013-06-12 08:28:00,77.0,68.1,29.80,WNW,292,8.5,11.5,74,0.00,OVC,,0.00,WeatherDisplay:10.37,2013-06-12 13:28:00,
2013-06-12 08:31:00,77.0,68.1,29.80,WSW,247,7.7,11.5,74,0.00,OVC,,0.00,WeatherDisplay:10.37,2013-06-12 13:31:00,
2013-06-12 08:32:00,77.0,68.5,29.80,WSW,247,8.3,11.5,75,0.00,OVC,,0.00,WeatherDisplay:10.37,2013-06-12 13:32:00,
2013-06-12 08:33:00,77.0,68.1,29.81,WSW,247,9.0,11.5,74,0.00,OVC,,0.00,WeatherDisplay:10.37,2013-06-12 13:33:00,
2013-06-12 08:36:00,77.0,68.5,29.81,WSW,247,8.5,10.4,75,0.00,OVC,,0.00,WeatherDisplay:10.37,2013-06-12 13:36:00,
2013-06-12 08:37:00,77.0,68.9,29.81,West,270,9.1,11.5,76,0.00,OVC,,0.00,WeatherDisplay:10.37,2013-06-12 13:37:00,
2013-06-12 08:39:00,77.0,68.9,29.81,WSW,247,6.3,9.2,76,0.00,OVC,,0.00,WeatherDisplay:10.37,2013-06-12 13:39:00,
2013-06-12 08:41:00,77.0,68.5,29.81,WSW,247,5.9,6.9,75,0.00,OVC,,0.00,WeatherDisplay:10.37,2013-06-12 13:41:00,
2013-06-12 08:42:00,77.0,68.5,29.81,West,270,3.3,8.1,75,0.00,OVC,,0.00,WeatherDisplay:10.37,2013-06-12 13:42:00,
2013-06-12 08:43:00,77.0,68.1,29.82,West,270,2.0,4.0,74,0.00,OVC,,0.00,WeatherDisplay:10.37,2013-06-12 13:43:00,
2013-06-12 08:44:00,77.0,67.7,29.82,WSW,247,5.9,10.4,73,0.00,OVC,,0.00,WeatherDisplay:10.37,2013-06-12 13:44:00,
2013-06-12 08:46:00,77.0,68.1,29.82,WNW,292,6.5,11.5,74,0.00,OVC,,0.00,WeatherDisplay:10.37,2013-06-12 13:46:00,
2013-06-12 08:47:00,77.0,68.1,29.82,West,270,7.1,11.5,74,0.00,OVC,,0.00,WeatherDisplay:10.37,2013-06-12 13:47:00,
2013-06-12 08:48:00,77.0,68.1,29.82,WNW,292,7.0,10.4,74,0.00,OVC,,0.00,WeatherDisplay:10.37,2013-06-12 13:48:00,
2013-06-12 08:49:00,77.0,68.1,29.82,WSW,247,7.9,11.5,74,0.00,OVC,,0.00,WeatherDisplay:10.37,2013-06-12 13:49:00,
2013-06-12 08:51:00,77.0,68.1,29.82,West,270,9.5,11.5,74,0.00,OVC,,0.00,WeatherDisplay:10.37,2013-06-12 13:51:00,
2013-06-12 08:52:00,77.0,68.1,29.82,West,270,10.1,12.0,74,0.00,OVC,,0.00,WeatherDisplay:10.37,2013-06-12 13:52:00,
2013-06-12 08:53:00,77.0,68.5,29.82,WNW,292,12.2,15.0,75,0.00,OVC,,0.00,WeatherDisplay:10.37,2013-06-12 13:53:00,
2013-06-12 08:54:00,76.0,67.5,29.82,WNW,292,10.4,13.8,75,0.00,OVC,,0.00,WeatherDisplay:10.37,2013-06-12 13:54:00,
2013-06-12 08:56:00,76.0,67.9,29.82,WNW,292,6.5,11.5,76,0.00,OVC,,0.00,WeatherDisplay:10.37,2013-06-12 13:56:00,
2013-06-12 08:57:00,76.0,67.1,29.82,WNW,292,9.7,14.0,74,0.00,OVC,,0.00,WeatherDisplay:10.37,2013-06-12 13:57:00,
2013-06-12 08:58:00,76.0,67.1,29.82,West,270,12.8,13.8,74,0.00,OVC,,0.00,WeatherDisplay:10.37,2013-06-12 13:58:00,
2013-06-12 08:59:00,76.0,67.9,29.82,WNW,292,9.5,15.0,76,0.00,OVC,,0.00,WeatherDisplay:10.37,2013-06-12 13:59:00,
2013-06-12 09:01:00,76.0,67.1,29.82,WSW,247,8.6,15.0,74,0.00,OVC,,0.00,WeatherDisplay:10.37,2013-06-12 14:01:00,
2013-06-12 09:02:00,77.0,67.7,29.83,West,270,11.6,15.0,73,0.00,OVC,,0.00,WeatherDisplay:10.37,2013-06-12 14:02:00,
2013-06-12 09:03:00,77.0,67.7,29.83,ESE,112,10.3,13.8,73,0.00,OVC,,0.00,WeatherDisplay:10.37,2013-06-12 14:03:00,
2013-06-12 09:04:00,77.0,68.1,29.83,WNW,292,9.1,10.4,74,0.00,OVC,,0.00,WeatherDisplay:10.37,2013-06-12 14:04:00,
2013-06-12 09:07:00,77.0,67.7,29.83,West,270,4.2,8.1,73,0.00,OVC,,0.00,WeatherDisplay:10.37,2013-06-12 14:07:00,
2013-06-12 09:08:00,77.0,67.3,29.83,West,270,3.0,4.6,72,0.00,OVC,,0.00,WeatherDisplay:10.37,2013-06-12 14:08:00,
2013-06-12 09:09:00,77.0,67.7,29.83,West,270,0.0,3.5,73,0.00,OVC,,0.00,WeatherDisplay:10.37,2013-06-12 14:09:00,
2013-06-12 09:12:00,78.0,68.2,29.83,West,270,1.1,3.5,72,0.00,OVC,,0.00,WeatherDisplay:10.37,2013-06-12 14:12:00,
2013-06-12 09:13:00,78.0,68.2,29.82,South,180,2.3,3.5,72,0.00,OVC,,0.00,WeatherDisplay:10.37,2013-06-12 14:13:00,
2013-06-12 09:14:00,78.0,68.2,29.82,South,180,1.7,3.5,72,0.00,OVC,,0.00,WeatherDisplay:10.37,2013-06-12 14:14:00,
2013-06-12 09:15:00,78.0,68.2,29.82,SSW,202,2.3,3.5,72,0.00,OVC,,0.00,WeatherDisplay:10.37,2013-06-12 14:15:00,
2013-06-12 09:17:00,79.0,69.2,29.82,SSW,202,0.0,0.0,72,0.00,OVC,,0.00,WeatherDisplay:10.37,2013-06-12 14:17:00,
2013-06-12 09:18:00,79.0,68.8,29.82,WSW,247,1.9,2.0,71,0.00,OVC,,0.00,WeatherDisplay:10.37,2013-06-12 14:18:00,
2013-06-12 09:19:00,79.0,68.8,29.82,WSW,247,2.3,3.5,71,0.00,OVC,,0.00,WeatherDisplay:10.37,2013-06-12 14:19:00,
2013-06-12 09:20:00,79.0,68.8,29.82,WSW,247,0.6,3.0,71,0.00,OVC,,0.00,WeatherDisplay:10.37,2013-06-12 14:20:00,
2013-06-12 09:22:00,80.0,68.9,29.82,South,180,2.9,5.0,69,0.00,OVC,,0.00,WeatherDisplay:10.37,2013-06-12 14:22:00,
2013-06-12 09:23:00,80.0,68.1,29.80,SSW,202,4.4,6.9,67,0.00,OVC,,0.00,WeatherDisplay:10.37,2013-06-12 14:23:00,
2013-06-12 09:24:00,80.0,67.6,29.80,West,270,5.1,7.0,66,0.00,OVC,,0.00,WeatherDisplay:10.37,2013-06-12 14:24:00,
2013-06-12 09:25:00,80.0,67.6,29.80,WSW,247,4.5,8.1,66,0.00,OVC,,0.00,WeatherDisplay:10.37,2013-06-12 14:25:00,
2013-06-12 09:27:00,80.0,68.1,29.80,WSW,247,5.2,7.0,67,0.00,OVC,,0.00,WeatherDisplay:10.37,2013-06-12 14:27:00,
2013-06-12 09:28:00,79.0,67.1,29.80,WSW,247,6.5,9.0,67,0.00,OVC,,0.00,WeatherDisplay:10.37,2013-06-12 14:28:00,
2013-06-12 09:29:00,79.0,66.7,29.80,WSW,247,7.0,9.2,66,0.00,OVC,,0.00,WeatherDisplay:10.37,2013-06-12 14:29:00,
2013-06-12 09:30:00,79.0,66.7,29.80,SSW,202,2.6,6.9,66,0.00,OVC,,0.00,WeatherDisplay:10.37,2013-06-12 14:30:00,
2013-06-12 09:32:00,80.0,68.1,29.80,WNW,292,1.1,4.6,67,0.00,OVC,,0.00,WeatherDisplay:10.37,2013-06-12 14:32:00,
2013-06-12 09:33:00,80.0,67.6,29.79,WNW,292,1.2,3.5,66,0.00,OVC,,0.00,WeatherDisplay:10.37,2013-06-12 14:33:00,
2013-06-12 09:34:00,80.0,67.6,29.79,WNW,292,3.9,5.0,66,0.00,OVC,,0.00,WeatherDisplay:10.37,2013-06-12 14:34:00,
2013-06-12 09:35:00,80.0,68.1,29.79,West,270,5.3,8.1,67,0.00,OVC,,0.00,WeatherDisplay:10.37,2013-06-12 14:35:00,
2013-06-12 09:37:00,80.0,66.7,29.79,NNW,337,4.2,9.2,64,0.00,OVC,,0.00,WeatherDisplay:10.37,2013-06-12 14:37:00,
2013-06-12 09:38:00,80.0,66.7,29.79,WNW,292,3.6,8.0,64,0.00,OVC,,0.00,WeatherDisplay:10.37,2013-06-12 14:38:00,
2013-06-12 09:39:00,80.0,66.7,29.79,WNW,292,6.0,11.5,64,0.00,OVC,,0.00,WeatherDisplay:10.37,2013-06-12 14:39:00,
2013-06-12 09:40:00,80.0,66.7,29.79,West,270,2.6,5.8,64,0.00,OVC,,0.00,WeatherDisplay:10.37,2013-06-12 14:40:00,
2013-06-12 09:42:00,81.0,66.8,29.78,WNW,292,4.7,5.8,62,0.00,OVC,,0.00,WeatherDisplay:10.37,2013-06-12 14:42:00,
2013-06-12 09:43:00,81.0,66.8,29.78,West,270,6.1,9.2,62,0.00,OVC,,0.00,WeatherDisplay:10.37,2013-06-12 14:43:00,
2013-06-12 09:45:00,81.0,66.8,29.78,WSW,247,2.5,8.1,62,0.00,OVC,,0.00,WeatherDisplay:10.37,2013-06-12 14:45:00,
2013-06-12 09:46:00,81.0,66.8,29.78,West,270,6.1,9.2,62,0.00,OVC,,0.00,WeatherDisplay:10.37,2013-06-12 14:46:00,
2013-06-12 09:48:00,81.0,66.3,29.78,West,270,3.9,5.8,61,0.00,OVC,,0.00,WeatherDisplay:10.37,2013-06-12 14:48:00,
2013-06-12 09:50:00,81.0,66.3,29.78,West,270,4.4,6.0,61,0.00,OVC,,0.00,WeatherDisplay:10.37,2013-06-12 14:50:00,
2013-06-12 09:52:00,81.0,66.8,29.78,West,270,5.6,6.9,62,0.00,OVC,,0.00,WeatherDisplay:10.37,2013-06-12 14:52:00,
2013-06-12 09:53:00,81.0,66.3,29.78,West,270,9.2,12.7,61,0.00,OVC,,0.00,WeatherDisplay:10.37,2013-06-12 14:53:00,
2013-06-12 09:55:00,81.0,66.8,29.78,WNW,292,10.2,11.5,62,0.00,OVC,,0.00,WeatherDisplay:10.37,2013-06-12 14:55:00,
2013-06-12 09:57:00,80.0,66.3,29.78,WNW,292,8.4,10.4,63,0.00,OVC,,0.00,WeatherDisplay:10.37,2013-06-12 14:57:00,
2013-06-12 09:58:00,80.0,66.7,29.78,WNW,292,11.4,13.8,64,0.00,OVC,,0.00,WeatherDisplay:10.37,2013-06-12 14:58:00,
2013-06-12 09:59:00,80.0,67.2,29.78,WNW,292,11.3,13.8,65,0.00,OVC,,0.00,WeatherDisplay:10.37,2013-06-12 14:59:00,
2013-06-12 10:00:00,80.0,66.7,29.78,WNW,292,11.4,13.8,64,0.00,OVC,,0.00,WeatherDisplay:10.37,2013-06-12 15:00:00,
2013-06-12 10:01:00,80.0,67.6,29.78,WNW,292,11.7,15.0,66,0.00,OVC,,0.00,WeatherDisplay:10.37,2013-06-12 15:01:00,
2013-06-12 10:02:00,80.0,67.6,29.78,WNW,292,10.4,13.8,66,0.00,OVC,,0.00,WeatherDisplay:10.37,2013-06-12 15:02:00,
2013-06-12 10:04:00,79.0,66.2,29.78,NW,315,9.6,12.7,65,0.00,OVC,,0.00,WeatherDisplay:10.37,2013-06-12 15:04:00,
2013-06-12 10:05:00,80.0,67.6,29.78,NNW,337,7.3,9.2,66,0.00,OVC,,0.00,WeatherDisplay:10.37,2013-06-12 15:05:00,
2013-06-12 10:06:00,80.0,67.6,29.78,West,270,8.4,11.0,66,0.00,OVC,,0.00,WeatherDisplay:10.37,2013-06-12 15:06:00,
2013-06-12 10:07:00,80.0,68.1,29.78,WNW,292,11.1,13.8,67,0.00,OVC,,0.00,WeatherDisplay:10.37,2013-06-12 15:07:00,
2013-06-12 10:09:00,80.0,68.1,29.78,WNW,292,11.0,11.5,67,0.00,OVC,,0.00,WeatherDisplay:10.37,2013-06-12 15:09:00,
2013-06-12 10:10:00,80.0,68.1,29.78,NW,315,10.7,12.7,67,0.00,OVC,,0.00,WeatherDisplay:10.37,2013-06-12 15:10:00,
2013-06-12 10:11:00,80.0,68.5,29.78,NW,315,9.8,12.7,68,0.00,OVC,,0.00,WeatherDisplay:10.37,2013-06-12 15:11:00,
2013-06-12 10:12:00,80.0,68.1,29.79,WNW,292,9.6,11.5,67,0.00,OVC,,0.00,WeatherDisplay:10.37,2013-06-12 15:12:00,
2013-06-12 10:14:00,80.0,68.5,29.79,West,270,7.0,10.4,68,0.00,OVC,,0.00,WeatherDisplay:10.37,2013-06-12 15:14:00,
2013-06-12 10:16:00,80.0,68.1,29.79,WNW,292,7.2,10.4,67,0.00,OVC,,0.00,WeatherDisplay:10.37,2013-06-12 15:16:00,
2013-06-12 10:18:00,80.0,67.6,29.79,NNW,337,7.9,11.5,66,0.00,OVC,,0.00,WeatherDisplay:10.37,2013-06-12 15:18:00,
2013-06-12 10:19:00,80.0,67.2,29.79,North,360,7.7,11.5,65,0.00,OVC,,0.00,WeatherDisplay:10.37,2013-06-12 15:19:00,
2013-06-12 10:21:00,81.0,67.7,29.79,NW,315,10.6,13.0,64,0.00,OVC,,0.00,WeatherDisplay:10.37,2013-06-12 15:21:00,
2013-06-12 10:23:00,80.0,67.6,29.79,West,270,11.0,12.7,66,0.00,OVC,,0.00,WeatherDisplay:10.37,2013-06-12 15:23:00,
2013-06-12 10:24:00,80.0,68.1,29.79,West,270,10.5,13.0,67,0.00,OVC,,0.00,WeatherDisplay:10.37,2013-06-12 15:24:00,
2013-06-12 10:26:00,80.0,68.1,29.79,West,270,12.8,17.3,67,0.00,OVC,,0.00,WeatherDisplay:10.37,2013-06-12 15:26:00,
2013-06-12 10:27:00,80.0,68.1,29.79,WNW,292,13.5,17.3,67,0.00,OVC,,0.00,WeatherDisplay:10.37,2013-06-12 15:27:00,
2013-06-12 10:28:00,79.0,66.7,29.79,WNW,292,11.1,13.8,66,0.00,OVC,,0.00,WeatherDisplay:10.37,2013-06-12 15:28:00,
2013-06-12 10:29:00,79.0,67.1,29.79,NW,315,7.6,11.5,67,0.00,OVC,,0.00,WeatherDisplay:10.37,2013-06-12 15:29:00,
2013-06-12 10:31:00,80.0,68.1,29.79,NNW,337,8.2,10.4,67,0.00,OVC,,0.00,WeatherDisplay:10.37,2013-06-12 15:31:00,
2013-06-12 10:32:00,80.0,68.1,29.79,NNW,337,8.6,12.0,67,0.00,OVC,,0.00,WeatherDisplay:10.37,2013-06-12 15:32:00,
2013-06-12 10:33:00,80.0,68.1,29.80,NNW,337,8.9,11.5,67,0.00,OVC,,0.00,WeatherDisplay:10.37,2013-06-12 15:33:00,
2013-06-12 10:34:00,81.0,69.0,29.80,NW,315,6.5,10.4,67,0.00,OVC,,0.00,WeatherDisplay:10.37,2013-06-12 15:34:00,
2013-06-12 10:37:00,81.0,68.6,29.80,NW,315,9.3,11.5,66,0.00,OVC,,0.00,WeatherDisplay:10.37,2013-06-12 15:37:00,
2013-06-12 10:38:00,81.0,68.1,29.80,NW,315,8.7,12.0,65,0.00,OVC,,0.00,WeatherDisplay:10.37,2013-06-12 15:38:00,
2013-06-12 10:39:00,81.0,67.7,29.80,NNW,337,10.7,12.7,64,0.00,OVC,,0.00,WeatherDisplay:10.37,2013-06-12 15:39:00,
2013-06-12 10:40:00,81.0,67.7,29.80,NNW,337,10.4,11.5,64,0.00,OVC,,0.00,WeatherDisplay:10.37,2013-06-12 15:40:00,
2013-06-12 10:42:00,81.0,68.6,29.80,North,360,6.0,9.2,66,0.00,OVC,,0.00,WeatherDisplay:10.37,2013-06-12 15:42:00,
2013-06-12 10:44:00,82.0,68.2,29.80,North,360,8.8,10.4,63,0.00,OVC,,0.00,WeatherDisplay:10.37,2013-06-12 15:44:00,
2013-06-12 10:45:00,82.0,68.6,29.80,WNW,292,6.8,10.4,64,0.00,OVC,,0.00,WeatherDisplay:10.37,2013-06-12 15:45:00,
2013-06-12 10:47:00,81.0,68.6,29.80,WNW,292,10.7,13.8,66,0.00,OVC,,0.00,WeatherDisplay:10.37,2013-06-12 15:47:00,
2013-06-12 10:49:00,81.0,69.0,29.80,WNW,292,8.8,10.4,67,0.00,OVC,,0.00,WeatherDisplay:10.37,2013-06-12 15:49:00,
2013-06-12 10:50:00,81.0,69.9,29.80,WNW,292,8.4,10.0,69,0.00,OVC,,0.00,WeatherDisplay:10.37,2013-06-12 15:50:00,
2013-06-12 10:52:00,81.0,68.6,29.80,WNW,292,10.6,16.1,66,0.00,OVC,,0.00,WeatherDisplay:10.37,2013-06-12 15:52:00,
2013-06-12 10:53:00,81.0,68.6,29.80,WNW,292,10.4,16.1,66,0.00,OVC,,0.00,WeatherDisplay:10.37,2013-06-12 15:53:00,
2013-06-12 10:54:00,81.0,67.7,29.80,NNW,337,9.0,12.7,64,0.00,OVC,,0.00,WeatherDisplay:10.37,2013-06-12 15:54:00,
2013-06-12 10:55:00,81.0,67.2,29.80,NW,315,11.7,16.1,63,0.00,OVC,,0.00,WeatherDisplay:10.37,2013-06-12 15:55:00,
2013-06-12 10:56:00,81.0,68.6,29.80,NNW,337,13.5,16.1,66,0.00,OVC,,0.00,WeatherDisplay:10.37,2013-06-12 15:56:00,
2013-06-12 10:58:00,80.0,67.2,29.80,NW,315,14.1,17.3,65,0.00,OVC,,0.00,WeatherDisplay:10.37,2013-06-12 15:58:00,
2013-06-12 10:59:00,80.0,67.6,29.80,NW,315,9.5,13.8,66,0.00,OVC,,0.00,WeatherDisplay:10.37,2013-06-12 15:59:00,
2013-06-12 11:00:00,80.0,67.6,29.80,NNW,337,7.7,11.5,66,0.00,OVC,,0.00,WeatherDisplay:10.37,2013-06-12 16:00:00,
2013-06-12 11:01:00,80.0,67.6,29.80,NW,315,10.3,11.5,66,0.00,OVC,,0.00,WeatherDisplay:10.37,2013-06-12 16:01:00,
2013-06-12 11:03:00,81.0,67.7,29.80,WNW,292,13.5,17.3,64,0.00,OVC,,0.00,WeatherDisplay:10.37,2013-06-12 16:03:00,
2013-06-12 11:04:00,80.0,68.1,29.80,NW,315,14.6,17.3,67,0.00,OVC,,0.00,WeatherDisplay:10.37,2013-06-12 16:04:00,
2013-06-12 11:05:00,80.0,68.5,29.80,NW,315,13.5,17.3,68,0.00,OVC,,0.00,WeatherDisplay:10.37,2013-06-12 16:05:00,
2013-06-12 11:06:00,80.0,67.6,29.80,NW,315,11.7,17.3,66,0.00,OVC,,0.00,WeatherDisplay:10.37,2013-06-12 16:06:00,
2013-06-12 11:08:00,80.0,68.1,29.80,NNW,337,8.6,11.5,67,0.00,OVC,,0.00,WeatherDisplay:10.37,2013-06-12 16:08:00,
2013-06-12 11:09:00,80.0,67.6,29.80,NW,315,8.7,10.4,66,0.00,OVC,,0.00,WeatherDisplay:10.37,2013-06-12 16:09:00,
2013-06-12 11:11:00,81.0,68.1,29.80,WNW,292,12.0,14.0,65,0.00,OVC,,0.00,WeatherDisplay:10.37,2013-06-12 16:11:00,
2013-06-12 11:13:00,81.0,68.6,29.80,NW,315,9.2,12.7,66,0.00,OVC,,0.00,WeatherDisplay:10.37,2013-06-12 16:13:00,
2013-06-12 11:14:00,81.0,69.0,29.80,NNW,337,10.9,16.1,67,0.00,OVC,,0.00,WeatherDisplay:10.37,2013-06-12 16:14:00,
2013-06-12 11:16:00,81.0,67.7,29.80,NW,315,9.1,13.8,64,0.00,OVC,,0.00,WeatherDisplay:10.37,2013-06-12 16:16:00,
2013-06-12 11:18:00,81.0,67.7,29.80,WNW,292,9.9,16.1,64,0.00,OVC,,0.00,WeatherDisplay:10.37,2013-06-12 16:18:00,
2013-06-12 11:19:00,81.0,67.7,29.80,WNW,292,10.2,16.1,64,0.00,OVC,,0.00,WeatherDisplay:10.37,2013-06-12 16:19:00,
2013-06-12 11:21:00,81.0,68.6,29.80,WNW,292,12.4,13.0,66,0.00,OVC,,0.00,WeatherDisplay:10.37,2013-06-12 16:21:00,
2013-06-12 11:22:00,81.0,68.6,29.80,WNW,292,12.7,12.7,66,0.00,OVC,,0.00,WeatherDisplay:10.37,2013-06-12 16:22:00,
2013-06-12 11:23:00,81.0,69.4,29.81,NNW,337,9.7,11.5,68,0.00,OVC,,0.00,WeatherDisplay:10.37,2013-06-12 16:23:00,
2013-06-12 11:24:00,81.0,69.4,29.81,NNW,337,9.2,11.5,68,0.00,OVC,,0.00,WeatherDisplay:10.37,2013-06-12 16:24:00,
2013-06-12 11:25:00,81.0,68.6,29.81,NNW,337,12.7,16.0,66,0.00,OVC,,0.00,WeatherDisplay:10.37,2013-06-12 16:25:00,
2013-06-12 11:27:00,81.0,68.6,29.81,NW,315,10.3,17.3,66,0.00,OVC,,0.00,WeatherDisplay:10.37,2013-06-12 16:27:00,
2013-06-12 11:29:00,82.0,68.2,29.81,NNW,337,10.5,12.7,63,0.00,OVC,,0.00,WeatherDisplay:10.37,2013-06-12 16:29:00,
2013-06-12 11:30:00,83.0,68.2,29.81,NNW,337,10.5,16.0,61,0.00,OVC,,0.00,WeatherDisplay:10.37,2013-06-12 16:30:00,
2013-06-12 11:32:00,83.0,68.6,29.81,WNW,292,11.5,15.0,62,0.00,OVC,,0.00,WeatherDisplay:10.37,2013-06-12 16:32:00,
2013-06-12 11:34:00,82.0,67.7,29.81,NNW,337,11.7,15.0,62,0.00,OVC,,0.00,WeatherDisplay:10.37,2013-06-12 16:34:00,
2013-06-12 11:35:00,82.0,67.7,29.81,WNW,292,11.8,17.3,62,0.00,OVC,,0.00,WeatherDisplay:10.37,2013-06-12 16:35:00,
2013-06-12 11:37:00,82.0,68.2,29.81,NNW,337,10.9,17.3,63,0.00,OVC,,0.00,WeatherDisplay:10.37,2013-06-12 16:37:00,
2013-06-12 11:39:00,82.0,69.5,29.81,WNW,292,11.5,12.7,66,0.00,OVC,,0.00,WeatherDisplay:10.37,2013-06-12 16:39:00,
2013-06-12 11:40:00,82.0,68.6,29.81,NW,315,13.5,15.0,64,0.00,OVC,,0.00,WeatherDisplay:10.37,2013-06-12 16:40:00,
2013-06-12 11:41:00,82.0,67.7,29.81,North,360,11.0,16.1,62,0.00,OVC,,0.00,WeatherDisplay:10.37,2013-06-12 16:41:00,
2013-06-12 11:42:00,83.0,68.2,29.81,NNW,337,13.8,17.3,61,0.00,OVC,,0.00,WeatherDisplay:10.37,2013-06-12 16:42:00,
2013-06-12 11:44:00,83.0,68.6,29.82,NNW,337,14.4,19.0,62,0.00,OVC,,0.00,WeatherDisplay:10.37,2013-06-12 16:44:00,
2013-06-12 11:45:00,82.0,67.2,29.82,NNW,337,15.5,20.7,61,0.00,OVC,,0.00,WeatherDisplay:10.37,2013-06-12 16:45:00,
2013-06-12 11:46:00,82.0,67.7,29.82,NW,315,15.2,19.6,62,0.00,OVC,,0.00,WeatherDisplay:10.37,2013-06-12 16:46:00,
2013-06-12 11:47:00,82.0,68.6,29.82,WNW,292,13.8,19.6,64,0.00,OVC,,0.00,WeatherDisplay:10.37,2013-06-12 16:47:00,
2013-06-12 11:48:00,82.0,69.5,29.82,NW,315,9.6,16.1,66,0.00,OVC,,0.00,WeatherDisplay:10.37,2013-06-12 16:48:00,
2013-06-12 11:50:00,83.0,69.1,29.82,NNE,22,9.3,13.8,63,0.00,OVC,,0.00,WeatherDisplay:10.37,2013-06-12 16:50:00,
2013-06-12 11:51:00,83.0,67.2,29.82,NNW,337,9.9,14.0,59,0.00,OVC,,0.00,WeatherDisplay:10.37,2013-06-12 16:51:00,
2013-06-12 11:53:00,84.0,68.6,29.82,WNW,292,11.4,18.4,60,0.00,OVC,,0.00,WeatherDisplay:10.37,2013-06-12 16:53:00,
2013-06-12 11:55:00,84.0,69.1,29.82,North,360,12.0,19.6,61,0.00,OVC,,0.00,WeatherDisplay:10.37,2013-06-12 16:55:00,
2013-06-12 11:57:00,84.0,68.1,29.82,NNW,337,10.2,19.6,59,0.00,OVC,,0.00,WeatherDisplay:10.37,2013-06-12 16:57:00,
2013-06-12 11:58:00,84.0,70.0,29.82,WNW,292,10.9,15.0,63,0.00,OVC,,0.00,WeatherDisplay:10.37,2013-06-12 16:58:00,
2013-06-12 12:00:00,84.0,68.6,29.82,North,360,12.3,16.1,60,0.00,OVC,,0.00,WeatherDisplay:10.37,2013-06-12 17:00:00,
2013-06-12 12:02:00,84.0,68.6,29.82,WNW,292,13.5,19.6,60,0.00,OVC,,0.00,WeatherDisplay:10.37,2013-06-12 17:02:00,
2013-06-12 12:03:00,84.0,68.6,29.82,WNW,292,15.1,21.0,60,0.00,OVC,,0.00,WeatherDisplay:10.37,2013-06-12 17:03:00,
2013-06-12 12:05:00,84.0,69.1,29.82,WNW,292,10.0,19.6,61,0.00,OVC,,0.00,WeatherDisplay:10.37,2013-06-12 17:05:00,
2013-06-12 12:06:00,84.0,69.1,29.82,NW,315,9.8,11.5,61,0.00,OVC,,0.00,WeatherDisplay:10.37,2013-06-12 17:06:00,
2013-06-12 12:07:00,84.0,68.1,29.82,NW,315,15.6,21.0,59,0.00,OVC,,0.00,WeatherDisplay:10.37,2013-06-12 17:07:00,
2013-06-12 12:08:00,84.0,66.6,29.82,NNW,337,20.5,21.9,56,0.00,OVC,,0.00,WeatherDisplay:10.37,2013-06-12 17:08:00,
2013-06-12 12:09:00,84.0,66.6,29.82,NNW,337,19.0,26.5,56,0.00,OVC,,0.00,WeatherDisplay:10.37,2013-06-12 17:09:00,
2013-06-12 12:11:00,84.0,68.1,29.82,WNW,292,16.1,24.2,59,0.00,OVC,,0.00,WeatherDisplay:10.37,2013-06-12 17:11:00,
2013-06-12 12:13:00,84.0,67.1,29.81,NW,315,22.7,27.6,57,0.00,OVC,,0.00,WeatherDisplay:10.37,2013-06-12 17:13:00,
2013-06-12 12:14:00,84.0,67.6,29.81,WNW,292,23.0,33.4,58,0.00,OVC,,0.00,WeatherDisplay:10.37,2013-06-12 17:14:00,
2013-06-12 12:16:00,84.0,68.6,29.81,WNW,292,17.3,22.0,60,0.00,OVC,,0.00,WeatherDisplay:10.37,2013-06-12 17:16:00,
2013-06-12 12:17:00,84.0,68.1,29.81,NW,315,18.1,23.0,59,0.00,OVC,,0.00,WeatherDisplay:10.37,2013-06-12 17:17:00,
2013-06-12 12:18:00,84.0,69.1,29.81,West,270,16.2,24.2,61,0.00,OVC,,0.00,WeatherDisplay:10.37,2013-06-12 17:18:00,
2013-06-12 12:19:00,84.0,67.6,29.81,WNW,292,19.8,25.3,58,0.00,OVC,,0.00,WeatherDisplay:10.37,2013-06-12 17:19:00,
2013-06-12 12:21:00,84.0,68.1,29.81,WNW,292,24.4,31.1,59,0.00,OVC,,0.00,WeatherDisplay:10.37,2013-06-12 17:21:00,
2013-06-12 12:22:00,84.0,68.1,29.83,NW,315,20.1,29.9,59,0.00,OVC,,0.00,WeatherDisplay:10.37,2013-06-12 17:22:00,
2013-06-12 12:23:00,84.0,68.1,29.83,NNW,337,16.2,25.3,59,0.00,OVC,,0.00,WeatherDisplay:10.37,2013-06-12 17:23:00,
2013-06-12 12:24:00,84.0,69.1,29.83,WNW,292,16.2,19.6,61,0.00,OVC,,0.00,WeatherDisplay:10.37,2013-06-12 17:24:00,
2013-06-12 12:26:00,85.0,68.6,29.83,NNW,337,16.9,23.0,58,0.00,OVC,,0.00,WeatherDisplay:10.37,2013-06-12 17:26:00,
2013-06-12 12:28:00,85.0,68.6,29.83,NNW,337,17.1,24.2,58,0.00,OVC,,0.00,WeatherDisplay:10.37,2013-06-12 17:28:00,
2013-06-12 12:29:00,85.0,67.5,29.83,NNW,337,18.9,26.5,56,0.00,OVC,,0.00,WeatherDisplay:10.37,2013-06-12 17:29:00,
2013-06-12 12:32:00,84.0,67.6,29.83,WNW,292,17.5,28.8,58,0.00,OVC,,0.00,WeatherDisplay:10.37,2013-06-12 17:32:00,
2013-06-12 12:33:00,84.0,67.6,29.83,WNW,292,20.3,28.0,58,0.00,OVC,,0.00,WeatherDisplay:10.37,2013-06-12 17:33:00,
2013-06-12 12:34:00,84.0,68.6,29.83,NW,315,23.0,31.1,60,0.00,OVC,,0.00,WeatherDisplay:10.37,2013-06-12 17:34:00,
2013-06-12 12:38:00,84.0,68.1,29.83,WNW,292,16.5,19.6,59,0.00,OVC,,0.00,WeatherDisplay:10.37,2013-06-12 17:38:00,
2013-06-12 12:39:00,84.0,68.1,29.83,WNW,292,15.7,23.0,59,0.00,OVC,,0.00,WeatherDisplay:10.37,2013-06-12 17:39:00,
2013-06-12 12:43:00,85.0,68.6,29.83,WNW,292,17.1,25.0,58,0.00,OVC,,0.00,WeatherDisplay:10.37,2013-06-12 17:43:00,
2013-06-12 12:44:00,85.0,67.5,29.83,WNW,292,21.2,29.0,56,0.00,OVC,,0.00,WeatherDisplay:10.37,2013-06-12 17:44:00,
2013-06-12 12:48:00,84.0,68.1,29.83,WNW,292,19.1,24.2,59,0.00,OVC,,0.00,WeatherDisplay:10.37,2013-06-12 17:48:00,
2013-06-12 12:49:00,84.0,69.1,29.83,WNW,292,18.8,26.5,61,0.00,OVC,,0.00,WeatherDisplay:10.37,2013-06-12 17:49:00,
2013-06-12 12:50:00,84.0,69.1,29.83,WNW,292,18.7,26.5,61,0.00,OVC,,0.00,WeatherDisplay:10.37,2013-06-12 17:50:00,
2013-06-12 12:53:00,84.0,68.1,29.83,NNW,337,22.9,32.2,59,0.00,OVC,,0.00,WeatherDisplay:10.37,2013-06-12 17:53:00,
2013-06-12 12:54:00,84.0,68.6,29.83,WNW,292,22.0,32.2,60,0.00,OVC,,0.00,WeatherDisplay:10.37,2013-06-12 17:54:00,
2013-06-12 12:55:00,84.0,69.1,29.83,NW,315,22.0,26.5,61,0.00,OVC,,0.00,WeatherDisplay:10.37,2013-06-12 17:55:00,
2013-06-12 12:58:00,83.0,67.2,29.83,NW,315,23.9,33.4,59,0.00,OVC,,0.00,WeatherDisplay:10.37,2013-06-12 17:58:00,
2013-06-12 12:59:00,83.0,67.2,29.83,WNW,292,22.9,32.2,59,0.00,OVC,,0.00,WeatherDisplay:10.37,2013-06-12 17:59:00,
2013-06-12 13:00:00,83.0,68.2,29.83,NNW,337,22.9,32.2,61,0.00,OVC,,0.00,WeatherDisplay:10.37,2013-06-12 18:00:00,
2013-06-12 13:03:00,83.0,67.2,29.86,WNW,292,20.6,28.8,59,0.00,OVC,,0.00,WeatherDisplay:10.37,2013-06-12 18:03:00,
2013-06-12 13:04:00,83.0,67.2,29.86,WNW,292,22.4,26.5,59,0.00,OVC,,0.00,WeatherDisplay:10.37,2013-06-12 18:04:00,
2013-06-12 13:05:00,83.0,67.2,29.86,WSW,247,25.5,29.9,59,0.00,OVC,,0.00,WeatherDisplay:10.37,2013-06-12 18:05:00,
2013-06-12 13:06:00,83.0,67.7,29.86,WNW,292,23.4,29.9,60,0.00,OVC,,0.00,WeatherDisplay:10.37,2013-06-12 18:06:00,
2013-06-12 13:09:00,82.0,67.2,29.86,NNW,337,18.1,28.8,61,0.00,OVC,,0.00,WeatherDisplay:10.37,2013-06-12 18:09:00,
2013-06-12 13:10:00,82.0,67.7,29.86,NW,315,20.0,31.1,62,0.00,OVC,,0.00,WeatherDisplay:10.37,2013-06-12 18:10:00,
2013-06-12 13:11:00,82.0,67.2,29.86,NW,315,18.5,23.0,61,0.00,OVC,,0.00,WeatherDisplay:10.37,2013-06-12 18:11:00,
2013-06-12 13:14:00,82.0,67.2,29.87,WNW,292,17.8,25.3,61,0.00,OVC,,0.00,WeatherDisplay:10.37,2013-06-12 18:14:00,
2013-06-12 13:15:00,82.0,67.2,29.87,WNW,292,21.7,29.0,61,0.00,OVC,,0.00,WeatherDisplay:10.37,2013-06-12 18:15:00,
2013-06-12 13:16:00,82.0,67.2,29.87,WNW,292,21.2,28.8,61,0.00,OVC,,0.00,WeatherDisplay:10.37,2013-06-12 18:16:00,
2013-06-12 13:19:00,82.0,67.7,29.87,WNW,292,20.8,31.1,62,0.00,OVC,,0.00,WeatherDisplay:10.37,2013-06-12 18:19:00,
2013-06-12 13:20:00,82.0,67.2,29.87,NW,315,19.8,26.5,61,0.00,OVC,,0.00,WeatherDisplay:10.37,2013-06-12 18:20:00,
2013-06-12 13:21:00,82.0,67.2,29.87,NNW,337,20.3,26.5,61,0.00,OVC,,0.00,WeatherDisplay:10.37,2013-06-12 18:21:00,
2013-06-12 13:22:00,82.0,67.2,29.87,NNW,337,19.6,26.5,61,0.00,OVC,,0.00,WeatherDisplay:10.37,2013-06-12 18:22:00,
2013-06-12 13:24:00,81.0,66.3,29.88,WNW,292,21.4,29.9,61,0.00,OVC,,0.00,WeatherDisplay:10.37,2013-06-12 18:24:00,
2013-06-12 13:25:00,81.0,66.3,29.88,NW,315,19.1,28.8,61,0.00,OVC,,0.00,WeatherDisplay:10.37,2013-06-12 18:25:00,
2013-06-12 13:27:00,82.0,67.2,29.88,NW,315,16.7,23.0,61,0.00,OVC,,0.00,WeatherDisplay:10.37,2013-06-12 18:27:00,
2013-06-12 13:29:00,81.0,66.3,29.88,NNW,337,21.9,26.5,61,0.00,OVC,,0.00,WeatherDisplay:10.37,2013-06-12 18:29:00,
2013-06-12 13:30:00,81.0,66.3,29.88,NW,315,20.2,28.8,61,0.00,OVC,,0.00,WeatherDisplay:10.37,2013-06-12 18:30:00,
2013-06-12 13:31:00,81.0,66.8,29.88,NNW,337,20.9,28.8,62,0.00,OVC,,0.00,WeatherDisplay:10.37,2013-06-12 18:31:00,
2013-06-12 13:32:00,81.0,66.8,29.88,NW,315,22.3,32.0,62,0.00,OVC,,0.00,WeatherDisplay:10.37,2013-06-12 18:32:00,
2013-06-12 13:35:00,81.0,66.3,29.88,NNW,337,23.0,33.4,61,0.00,OVC,,0.00,WeatherDisplay:10.37,2013-06-12 18:35:00,
2013-06-12 13:36:00,81.0,67.7,29.88,NNW,337,17.5,26.5,64,0.00,OVC,,0.00,WeatherDisplay:10.37,2013-06-12 18:36:00,
2013-06-12 13:37:00,81.0,66.8,29.88,WNW,292,21.1,26.5,62,0.00,OVC,,0.00,WeatherDisplay:10.37,2013-06-12 18:37:00,
2013-06-12 13:40:00,81.0,66.8,29.88,NW,315,18.7,26.5,62,0.00,OVC,,0.00,WeatherDisplay:10.37,2013-06-12 18:40:00,
2013-06-12 13:41:00,81.0,67.7,29.88,WNW,292,19.1,29.0,64,0.00,OVC,,0.00,WeatherDisplay:10.37,2013-06-12 18:41:00,
2013-06-12 13:42:00,81.0,66.3,29.88,NNW,337,20.3,28.8,61,0.00,OVC,,0.00,WeatherDisplay:10.37,2013-06-12 18:42:00,
2013-06-12 13:43:00,81.0,65.8,29.90,WNW,292,19.8,28.8,60,0.00,OVC,,0.00,WeatherDisplay:10.37,2013-06-12 18:43:00,
2013-06-12 13:45:00,81.0,66.3,29.90,NW,315,21.6,33.4,61,0.00,OVC,,0.00,WeatherDisplay:10.37,2013-06-12 18:45:00,
2013-06-12 13:46:00,81.0,65.8,29.90,NW,315,23.9,32.2,60,0.00,OVC,,0.00,WeatherDisplay:10.37,2013-06-12 18:46:00,
2013-06-12 13:47:00,81.0,66.3,29.90,WNW,292,24.1,29.9,61,0.00,OVC,,0.00,WeatherDisplay:10.37,2013-06-12 18:47:00,
2013-06-12 13:48:00,81.0,66.3,29.90,WNW,292,24.8,29.9,61,0.00,OVC,,0.00,WeatherDisplay:10.37,2013-06-12 18:48:00,
2013-06-12 13:50:00,81.0,66.8,29.90,NW,315,18.4,23.0,62,0.00,OVC,,0.00,WeatherDisplay:10.37,2013-06-12 18:50:00,
2013-06-12 13:51:00,81.0,65.3,29.90,WNW,292,21.9,27.6,59,0.00,OVC,,0.00,WeatherDisplay:10.37,2013-06-12 18:51:00,
2013-06-12 13:53:00,81.0,66.8,29.90,WNW,292,22.5,32.2,62,0.00,OVC,,0.00,WeatherDisplay:10.37,2013-06-12 18:53:00,
2013-06-12 13:55:00,80.0,65.8,29.90,WNW,292,26.6,34.5,62,0.00,OVC,,0.00,WeatherDisplay:10.37,2013-06-12 18:55:00,
2013-06-12 13:56:00,80.0,66.7,29.90,WNW,292,24.9,33.4,64,0.00,OVC,,0.00,WeatherDisplay:10.37,2013-06-12 18:56:00,
2013-06-12 13:57:00,80.0,66.7,29.90,WNW,292,24.4,33.4,64,0.00,OVC,,0.00,WeatherDisplay:10.37,2013-06-12 18:57:00,
2013-06-12 13:58:00,81.0,66.3,29.90,NNW,337,18.5,26.5,61,0.00,OVC,,0.00,WeatherDisplay:10.37,2013-06-12 18:58:00,
2013-06-12 14:00:00,80.0,65.3,29.90,NNW,337,23.7,31.1,61,0.00,OVC,,0.00,WeatherDisplay:10.37,2013-06-12 19:00:00,
2013-06-12 14:02:00,80.0,64.4,29.90,NW,315,22.4,32.0,59,0.00,OVC,,0.00,WeatherDisplay:10.37,2013-06-12 19:02:00,
2013-06-12 14:03:00,80.0,65.3,29.90,NW,315,21.6,32.2,61,0.00,OVC,,0.00,WeatherDisplay:10.37,2013-06-12 19:03:00,
2013-06-12 14:05:00,81.0,66.8,29.90,North,360,19.4,27.6,62,0.00,OVC,,0.00,WeatherDisplay:10.37,2013-06-12 19:05:00,
2013-06-12 14:07:00,81.0,66.3,29.90,NW,315,19.9,32.2,61,0.00,OVC,,0.00,WeatherDisplay:10.37,2013-06-12 19:07:00,
2013-06-12 14:08:00,80.0,65.3,29.90,NW,315,20.3,28.0,61,0.00,OVC,,0.00,WeatherDisplay:10.37,2013-06-12 19:08:00,
2013-06-12 14:10:00,80.0,66.3,29.90,WNW,292,22.3,27.6,63,0.00,OVC,,0.00,WeatherDisplay:10.37,2013-06-12 19:10:00,
2013-06-12 14:12:00,81.0,67.7,29.90,WNW,292,18.0,32.2,64,0.00,OVC,,0.00,WeatherDisplay:10.37,2013-06-12 19:12:00,
2013-06-12 14:13:00,81.0,67.7,29.90,NW,315,18.0,25.3,64,0.00,OVC,,0.00,WeatherDisplay:10.37,2013-06-12 19:13:00,
2013-06-12 14:15:00,81.0,66.3,29.90,NW,315,16.3,26.5,61,0.00,OVC,,0.00,WeatherDisplay:10.37,2013-06-12 19:15:00,
2013-06-12 14:17:00,81.0,66.3,29.90,NNW,337,21.9,26.5,61,0.00,OVC,,0.00,WeatherDisplay:10.37,2013-06-12 19:17:00,
2013-06-12 14:18:00,81.0,66.3,29.90,NNW,337,19.7,33.4,61,0.00,OVC,,0.00,WeatherDisplay:10.37,2013-06-12 19:18:00,
2013-06-12 14:19:00,81.0,66.3,29.90,NNW,337,17.5,33.4,61,0.00,OVC,,0.00,WeatherDisplay:10.37,2013-06-12 19:19:00,
2013-06-12 14:21:00,81.0,65.3,29.90,WNW,292,21.7,26.5,59,0.00,OVC,,0.00,WeatherDisplay:10.37,2013-06-12 19:21:00,
2013-06-12 14:22:00,81.0,65.3,29.90,WNW,292,19.1,25.0,59,0.00,OVC,,0.00,WeatherDisplay:10.37,2013-06-12 19:22:00,
2013-06-12 14:23:00,81.0,65.3,29.90,NW,315,21.5,27.0,59,0.00,OVC,,0.00,WeatherDisplay:10.37,2013-06-12 19:23:00,
2013-06-12 14:24:00,81.0,65.3,29.90,WNW,292,21.9,29.9,59,0.00,OVC,,0.00,WeatherDisplay:10.37,2013-06-12 19:24:00,
2013-06-12 14:26:00,81.0,66.3,29.90,WNW,292,19.3,31.1,61,0.00,OVC,,0.00,WeatherDisplay:10.37,2013-06-12 19:26:00,
2013-06-12 14:28:00,81.0,66.3,29.90,NNW,337,16.3,24.2,61,0.00,OVC,,0.00,WeatherDisplay:10.37,2013-06-12 19:28:00,
2013-06-12 14:29:00,81.0,65.3,29.90,NNW,337,18.3,26.5,59,0.00,OVC,,0.00,WeatherDisplay:10.37,2013-06-12 19:29:00,
2013-06-12 14:31:00,81.0,66.8,29.90,NNW,337,20.3,28.8,62,0.00,OVC,,0.00,WeatherDisplay:10.37,2013-06-12 19:31:00,
2013-06-12 14:33:00,80.0,64.4,29.90,NNW,337,20.1,28.8,59,0.00,OVC,,0.00,WeatherDisplay:10.37,2013-06-12 19:33:00,
2013-06-12 14:34:00,80.0,64.4,29.90,NNW,337,17.7,24.2,59,0.00,OVC,,0.00,WeatherDisplay:10.37,2013-06-12 19:34:00,
2013-06-12 14:36:00,80.0,64.4,29.90,NNW,337,22.1,34.5,59,0.00,OVC,,0.00,WeatherDisplay:10.37,2013-06-12 19:36:00,
2013-06-12 14:38:00,81.0,65.3,29.90,NW,315,18.7,23.0,59,0.00,OVC,,0.00,WeatherDisplay:10.37,2013-06-12 19:38:00,
2013-06-12 14:39:00,81.0,65.3,29.90,WNW,292,20.7,25.3,59,0.00,OVC,,0.00,WeatherDisplay:10.37,2013-06-12 19:39:00,
2013-06-12 14:40:00,81.0,65.3,29.90,NW,315,18.6,25.3,59,0.00,OVC,,0.00,WeatherDisplay:10.37,2013-06-12 19:40:00,
2013-06-12 14:42:00,81.0,66.3,29.90,NNW,337,13.8,20.7,61,0.00,OVC,,0.00,WeatherDisplay:10.37,2013-06-12 19:42:00,
2013-06-12 14:43:00,81.0,65.3,29.91,NW,315,14.9,19.6,59,0.00,OVC,,0.00,WeatherDisplay:10.37,2013-06-12 19:43:00,
2013-06-12 14:44:00,81.0,65.3,29.91,NW,315,15.1,20.7,59,0.00,OVC,,0.00,WeatherDisplay:10.37,2013-06-12 19:44:00,
2013-06-12 14:45:00,81.0,64.3,29.91,WNW,292,19.1,23.0,57,0.00,OVC,,0.00,WeatherDisplay:10.37,2013-06-12 19:45:00,
2013-06-12 14:47:00,81.0,64.3,29.91,WNW,292,25.3,27.0,57,0.00,OVC,,0.00,WeatherDisplay:10.37,2013-06-12 19:47:00,
2013-06-12 14:49:00,81.0,64.8,29.91,NW,315,19.7,26.5,58,0.00,OVC,,0.00,WeatherDisplay:10.37,2013-06-12 19:49:00,
2013-06-12 14:50:00,81.0,65.3,29.91,WNW,292,19.5,26.5,59,0.00,OVC,,0.00,WeatherDisplay:10.37,2013-06-12 19:50:00,
2013-06-12 14:51:00,81.0,64.3,29.91,WNW,292,19.0,25.3,57,0.00,OVC,,0.00,WeatherDisplay:10.37,2013-06-12 19:51:00,
2013-06-12 14:53:00,82.0,65.3,29.91,NNW,337,18.7,24.2,57,0.00,OVC,,0.00,WeatherDisplay:10.37,2013-06-12 19:53:00,
2013-06-12 14:54:00,81.0,64.8,29.91,NNW,337,18.6,25.3,58,0.00,OVC,,0.00,WeatherDisplay:10.37,2013-06-12 19:54:00,
2013-06-12 14:55:00,81.0,63.8,29.91,NW,315,18.6,26.5,56,0.00,OVC,,0.00,WeatherDisplay:10.37,2013-06-12 19:55:00,
2013-06-12 14:56:00,81.0,63.3,29.91,NW,315,21.2,27.6,55,0.00,OVC,,0.00,WeatherDisplay:10.37,2013-06-12 19:56:00,
2013-06-12 14:58:00,81.0,63.3,29.91,NW,315,22.0,32.2,55,0.00,OVC,,0.00,WeatherDisplay:10.37,2013-06-12 19:58:00,
2013-06-12 14:59:00,81.0,63.8,29.91,WNW,292,20.7,26.5,56,0.00,OVC,,0.00,WeatherDisplay:10.37,2013-06-12 19:59:00,
2013-06-12 15:00:00,81.0,63.8,29.91,NNW,337,18.3,26.5,56,0.00,OVC,,0.00,WeatherDisplay:10.37,2013-06-12 20:00:00,
2013-06-12 15:01:00,81.0,64.3,29.91,WNW,292,18.3,32.0,57,0.00,OVC,,0.00,WeatherDisplay:10.37,2013-06-12 20:01:00,
2013-06-12 15:03:00,81.0,62.8,29.91,WNW,292,22.8,31.0,54,0.00,OVC,,0.00,WeatherDisplay:10.37,2013-06-12 20:03:00,
2013-06-12 15:04:00,81.0,63.3,29.91,NW,315,17.4,31.1,55,0.00,OVC,,0.00,WeatherDisplay:10.37,2013-06-12 20:04:00,
2013-06-12 15:05:00,81.0,62.8,29.91,NNW,337,20.9,24.2,54,0.00,OVC,,0.00,WeatherDisplay:10.37,2013-06-12 20:05:00,
2013-06-12 15:06:00,81.0,62.8,29.91,WNW,292,19.6,26.5,54,0.00,OVC,,0.00,WeatherDisplay:10.37,2013-06-12 20:06:00,
2013-06-12 15:08:00,81.0,63.3,29.91,NW,315,15.6,23.0,55,0.00,OVC,,0.00,WeatherDisplay:10.37,2013-06-12 20:08:00,
2013-06-12 15:09:00,81.0,63.3,29.91,NNW,337,20.3,25.3,55,0.00,OVC,,0.00,WeatherDisplay:10.37,2013-06-12 20:09:00,
2013-06-12 15:10:00,81.0,63.3,29.91,NW,315,20.3,28.8,55,0.00,OVC,,0.00,WeatherDisplay:10.37,2013-06-12 20:10:00,
2013-06-12 15:11:00,81.0,62.8,29.91,NW,315,19.1,26.5,54,0.00,OVC,,0.00,WeatherDisplay:10.37,2013-06-12 20:11:00,
2013-06-12 15:13:00,81.0,63.8,29.91,WNW,292,19.6,21.9,56,0.00,OVC,,0.00,WeatherDisplay:10.37,2013-06-12 20:13:00,
2013-06-12 15:15:00,81.0,64.3,29.91,WNW,292,14.1,26.5,57,0.00,OVC,,0.00,WeatherDisplay:10.37,2013-06-12 20:15:00,
2013-06-12 15:16:00,81.0,62.8,29.91,WNW,292,15.1,19.6,54,0.00,OVC,,0.00,WeatherDisplay:10.37,2013-06-12 20:16:00,
2013-06-12 15:18:00,81.0,62.8,29.91,NNW,337,17.4,29.9,54,0.00,OVC,,0.00,WeatherDisplay:10.37,2013-06-12 20:18:00,
2013-06-12 15:20:00,81.0,62.8,29.91,NW,315,16.3,21.0,54,0.00,OVC,,0.00,WeatherDisplay:10.37,2013-06-12 20:20:00,
2013-06-12 15:21:00,81.0,62.8,29.91,WNW,292,18.8,25.3,54,0.00,OVC,,0.00,WeatherDisplay:10.37,2013-06-12 20:21:00,
2013-06-12 15:24:00,81.0,61.7,29.90,WNW,292,19.4,29.9,52,0.00,OVC,,0.00,WeatherDisplay:10.37,2013-06-12 20:24:00,
2013-06-12 15:25:00,81.0,61.2,29.90,WNW,292,24.1,31.1,51,0.00,OVC,,0.00,WeatherDisplay:10.37,2013-06-12 20:25:00,
2013-06-12 15:26:00,81.0,61.7,29.90,WNW,292,21.9,28.8,52,0.00,OVC,,0.00,WeatherDisplay:10.37,2013-06-12 20:26:00,
2013-06-12 15:27:00,81.0,61.7,29.90,WNW,292,21.0,28.8,52,0.00,OVC,,0.00,WeatherDisplay:10.37,2013-06-12 20:27:00,
2013-06-12 15:29:00,81.0,61.7,29.90,WNW,292,18.7,21.9,52,0.00,OVC,,0.00,WeatherDisplay:10.37,2013-06-12 20:29:00,
2013-06-12 15:30:00,81.0,63.3,29.90,NW,315,16.1,27.6,55,0.00,OVC,,0.00,WeatherDisplay:10.37,2013-06-12 20:30:00,
2013-06-12 15:31:00,81.0,62.3,29.90,NNW,337,17.3,23.0,53,0.00,OVC,,0.00,WeatherDisplay:10.37,2013-06-12 20:31:00,
2013-06-12 15:32:00,81.0,62.3,29.90,NW,315,18.5,26.5,53,0.00,OVC,,0.00,WeatherDisplay:10.37,2013-06-12 20:32:00,
2013-06-12 15:34:00,81.0,61.7,29.92,WNW,292,23.9,29.9,52,0.00,OVC,,0.00,WeatherDisplay:10.37,2013-06-12 20:34:00,
2013-06-12 15:36:00,81.0,62.8,29.92,WNW,292,19.7,26.5,54,0.00,OVC,,0.00,WeatherDisplay:10.37,2013-06-12 20:36:00,
2013-06-12 15:37:00,81.0,62.8,29.92,WNW,292,21.1,26.5,54,0.00,OVC,,0.00,WeatherDisplay:10.37,2013-06-12 20:37:00,
2013-06-12 15:39:00,80.0,61.9,29.92,WNW,292,22.1,26.5,54,0.00,OVC,,0.00,WeatherDisplay:10.37,2013-06-12 20:39:00,
2013-06-12 15:41:00,81.0,62.3,29.92,WNW,292,19.5,26.5,53,0.00,OVC,,0.00,WeatherDisplay:10.37,2013-06-12 20:41:00,
2013-06-12 15:42:00,81.0,62.3,29.92,NW,315,19.9,26.5,53,0.00,OVC,,0.00,WeatherDisplay:10.37,2013-06-12 20:42:00,
2013-06-12 15:45:00,80.0,60.2,29.91,WNW,292,22.7,25.0,51,0.00,OVC,,0.00,WeatherDisplay:10.37,2013-06-12 20:45:00,
2013-06-12 15:47:00,80.0,61.9,29.91,NW,315,19.0,27.6,54,0.00,OVC,,0.00,WeatherDisplay:10.37,2013-06-12 20:47:00,
2013-06-12 15:50:00,80.0,60.2,29.91,NW,315,20.0,24.2,51,0.00,OVC,,0.00,WeatherDisplay:10.37,2013-06-12 20:50:00,
2013-06-12 15:52:00,80.0,60.8,29.91,NNW,337,17.0,25.3,52,0.00,OVC,,0.00,WeatherDisplay:10.37,2013-06-12 20:52:00,
2013-06-12 15:56:00,81.0,61.7,29.93,NW,315,22.3,29.9,52,0.00,OVC,,0.00,WeatherDisplay:10.37,2013-06-12 20:56:00,
2013-06-12 15:57:00,81.0,61.7,29.93,WNW,292,21.2,26.5,52,0.00,OVC,,0.00,WeatherDisplay:10.37,2013-06-12 20:57:00,
2013-06-12 15:58:00,81.0,61.7,29.93,NW,315,20.6,26.5,52,0.00,OVC,,0.00,WeatherDisplay:10.37,2013-06-12 20:58:00,
2013-06-12 16:01:00,80.0,60.8,29.93,NW,315,17.0,26.5,52,0.00,OVC,,0.00,WeatherDisplay:10.37,2013-06-12 21:01:00,
2013-06-12 16:02:00,80.0,61.9,29.93,West,270,16.7,21.9,54,0.00,OVC,,0.00,WeatherDisplay:10.37,2013-06-12 21:02:00,
2013-06-12 16:03:00,81.0,61.7,29.92,NW,315,18.0,21.9,52,0.00,OVC,,0.00,WeatherDisplay:10.37,2013-06-12 21:03:00,
2013-06-12 16:06:00,80.0,61.9,29.92,NW,315,21.5,27.6,54,0.00,OVC,,0.00,WeatherDisplay:10.37,2013-06-12 21:06:00,
2013-06-12 16:07:00,80.0,61.9,29.92,NNW,337,16.8,25.3,54,0.00,OVC,,0.00,WeatherDisplay:10.37,2013-06-12 21:07:00,
2013-06-12 16:08:00,80.0,60.8,29.92,WNW,292,17.0,25.3,52,0.00,OVC,,0.00,WeatherDisplay:10.37,2013-06-12 21:08:00,
2013-06-12 16:11:00,80.0,60.2,29.92,WNW,292,20.6,29.9,51,0.00,OVC,,0.00,WeatherDisplay:10.37,2013-06-12 21:11:00,
2013-06-12 16:12:00,80.0,60.2,29.92,WNW,292,18.4,27.6,51,0.00,OVC,,0.00,WeatherDisplay:10.37,2013-06-12 21:12:00,
2013-06-12 16:13:00,81.0,61.2,29.93,WNW,292,16.8,25.3,51,0.00,OVC,,0.00,WeatherDisplay:10.37,2013-06-12 21:13:00,
2013-06-12 16:14:00,81.0,63.3,29.93,WNW,292,12.9,19.6,55,0.00,OVC,,0.00,WeatherDisplay:10.37,2013-06-12 21:14:00,
2013-06-12 16:17:00,80.0,60.2,29.93,WNW,292,24.7,34.5,51,0.00,OVC,,0.00,WeatherDisplay:10.37,2013-06-12 21:17:00,
2013-06-12 16:18:00,80.0,60.8,29.93,WNW,292,20.2,26.5,52,0.00,OVC,,0.00,WeatherDisplay:10.37,2013-06-12 21:18:00,
2013-06-12 16:19:00,79.0,59.3,29.93,NW,315,22.0,26.5,51,0.00,OVC,,0.00,WeatherDisplay:10.37,2013-06-12 21:19:00,
2013-06-12 16:22:00,80.0,60.2,29.93,NW,315,22.6,27.6,51,0.00,OVC,,0.00,WeatherDisplay:10.37,2013-06-12 21:22:00,
2013-06-12 16:23:00,80.0,60.8,29.93,WNW,292,19.6,28.8,52,0.00,OVC,,0.00,WeatherDisplay:10.37,2013-06-12 21:23:00,
2013-06-12 16:24:00,80.0,60.8,29.93,NW,315,21.3,27.0,52,0.00,OVC,,0.00,WeatherDisplay:10.37,2013-06-12 21:24:00,
2013-06-12 16:27:00,80.0,62.9,29.93,NW,315,18.8,26.5,56,0.00,OVC,,0.00,WeatherDisplay:10.37,2013-06-12 21:27:00,
2013-06-12 16:28:00,80.0,62.9,29.93,NW,315,15.1,24.2,56,0.00,OVC,,0.00,WeatherDisplay:10.37,2013-06-12 21:28:00,
2013-06-12 16:29:00,81.0,62.8,29.93,NW,315,13.4,19.6,54,0.00,OVC,,0.00,WeatherDisplay:10.37,2013-06-12 21:29:00,
2013-06-12 16:33:00,81.0,60.6,29.93,NNW,337,20.3,25.3,50,0.00,OVC,,0.00,WeatherDisplay:10.37,2013-06-12 21:33:00,
2013-06-12 16:34:00,80.0,60.2,29.93,WNW,292,21.6,29.0,51,0.00,OVC,,0.00,WeatherDisplay:10.37,2013-06-12 21:34:00,
2013-06-12 16:35:00,80.0,60.2,29.93,NW,315,24.0,33.0,51,0.00,OVC,,0.00,WeatherDisplay:10.37,2013-06-12 21:35:00,
2013-06-12 16:38:00,80.0,61.9,29.93,NW,315,18.2,26.5,54,0.00,OVC,,0.00,WeatherDisplay:10.37,2013-06-12 21:38:00,
2013-06-12 16:40:00,80.0,60.8,29.93,NW,315,18.6,26.5,52,0.00,OVC,,0.00,WeatherDisplay:10.37,2013-06-12 21:40:00,
2013-06-12 16:43:00,81.0,61.2,29.92,WNW,292,20.8,31.1,51,0.00,OVC,,0.00,WeatherDisplay:10.37,2013-06-12 21:43:00,
2013-06-12 16:45:00,80.0,60.2,29.92,WNW,292,22.8,30.0,51,0.00,OVC,,0.00,WeatherDisplay:10.37,2013-06-12 21:45:00,
2013-06-12 16:46:00,79.0,58.8,29.92,WNW,292,26.4,34.5,50,0.00,OVC,,0.00,WeatherDisplay:10.37,2013-06-12 21:46:00,
2013-06-12 16:48:00,79.0,59.3,29.92,NW,315,19.3,25.3,51,0.00,OVC,,0.00,WeatherDisplay:10.37,2013-06-12 21:48:00,
2013-06-12 16:50:00,79.0,58.8,29.92,WNW,292,24.0,27.0,50,0.00,OVC,,0.00,WeatherDisplay:10.37,2013-06-12 21:50:00,
2013-06-12 16:51:00,79.0,58.8,29.92,WNW,292,24.9,32.2,50,0.00,OVC,,0.00,WeatherDisplay:10.37,2013-06-12 21:51:00,
2013-06-12 16:53:00,79.0,59.3,29.93,WNW,292,23.0,28.8,51,0.00,OVC,,0.00,WeatherDisplay:10.37,2013-06-12 21:53:00,
2013-06-12 16:54:00,79.0,59.3,29.93,WNW,292,22.9,28.8,51,0.00,OVC,,0.00,WeatherDisplay:10.37,2013-06-12 21:54:00,
2013-06-12 16:56:00,79.0,59.3,29.93,NW,315,19.9,26.5,51,0.00,OVC,,0.00,WeatherDisplay:10.37,2013-06-12 21:56:00,
2013-06-12 16:59:00,80.0,61.3,29.93,WNW,292,16.6,28.8,53,0.00,OVC,,0.00,WeatherDisplay:10.37,2013-06-12 21:59:00,
2013-06-12 17:01:00,80.0,60.2,29.93,NW,315,20.1,27.0,51,0.00,OVC,,0.00,WeatherDisplay:10.37,2013-06-12 22:01:00,
2013-06-12 17:02:00,80.0,60.2,29.93,NW,315,21.9,27.0,51,0.00,OVC,,0.00,WeatherDisplay:10.37,2013-06-12 22:02:00,
2013-06-12 17:04:00,79.0,60.4,29.94,WNW,292,15.5,25.3,53,0.00,OVC,,0.00,WeatherDisplay:10.37,2013-06-12 22:04:00,
2013-06-12 17:06:00,79.0,58.8,29.94,WNW,292,18.8,26.5,50,0.00,OVC,,0.00,WeatherDisplay:10.37,2013-06-12 22:06:00,
2013-06-12 17:07:00,79.0,58.8,29.94,WNW,292,19.7,26.5,50,0.00,OVC,,0.00,WeatherDisplay:10.37,2013-06-12 22:07:00,
2013-06-12 17:09:00,80.0,60.8,29.94,WNW,292,16.4,23.0,52,0.00,OVC,,0.00,WeatherDisplay:10.37,2013-06-12 22:09:00,
2013-06-12 17:12:00,80.0,60.2,29.94,WNW,292,19.7,27.6,51,0.00,OVC,,0.00,WeatherDisplay:10.37,2013-06-12 22:12:00,
2013-06-12 17:14:00,80.0,59.7,29.94,NW,315,18.8,23.0,50,0.00,OVC,,0.00,WeatherDisplay:10.37,2013-06-12 22:14:00,
2013-06-12 17:15:00,80.0,59.7,29.94,WNW,292,19.4,26.5,50,0.00,OVC,,0.00,WeatherDisplay:10.37,2013-06-12 22:15:00,
2013-06-12 17:17:00,80.0,59.7,29.94,WNW,292,21.3,27.6,50,0.00,OVC,,0.00,WeatherDisplay:10.37,2013-06-12 22:17:00,
2013-06-12 17:19:00,80.0,59.1,29.94,NW,315,24.4,30.0,49,0.00,OVC,,0.00,WeatherDisplay:10.37,2013-06-12 22:19:00,
2013-06-12 17:20:00,80.0,59.1,29.94,NW,315,25.1,33.4,49,0.00,OVC,,0.00,WeatherDisplay:10.37,2013-06-12 22:20:00,
2013-06-12 17:22:00,79.0,58.2,29.94,NNW,337,19.8,26.5,49,0.00,OVC,,0.00,WeatherDisplay:10.37,2013-06-12 22:22:00,
2013-06-12 17:25:00,80.0,59.7,29.94,WNW,292,17.0,23.0,50,0.00,OVC,,0.00,WeatherDisplay:10.37,2013-06-12 22:25:00,
2013-06-12 17:27:00,80.0,59.1,29.94,WNW,292,19.0,28.8,49,0.00,OVC,,0.00,WeatherDisplay:10.37,2013-06-12 22:27:00,
2013-06-12 17:28:00,80.0,59.1,29.94,NW,315,19.0,32.0,49,0.00,OVC,,0.00,WeatherDisplay:10.37,2013-06-12 22:28:00,
2013-06-12 17:30:00,79.0,57.0,29.94,WNW,292,26.0,32.2,47,0.00,OVC,,0.00,WeatherDisplay:10.37,2013-06-12 22:30:00,
2013-06-12 17:31:00,79.0,57.0,29.94,WNW,292,26.4,36.0,47,0.00,OVC,,0.00,WeatherDisplay:10.37,2013-06-12 22:31:00,
2013-06-12 17:32:00,79.0,56.5,29.94,WNW,292,21.4,35.7,46,0.00,OVC,,0.00,WeatherDisplay:10.37,2013-06-12 22:32:00,
2013-06-12 17:33:00,79.0,56.5,29.94,West,270,21.7,33.0,46,0.00,OVC,,0.00,WeatherDisplay:10.37,2013-06-12 22:33:00,
2013-06-12 17:35:00,79.0,57.6,29.94,WNW,292,23.1,31.1,48,0.00,OVC,,0.00,WeatherDisplay:10.37,2013-06-12 22:35:00,
2013-06-12 17:36:00,79.0,57.6,29.94,WNW,292,26.2,31.1,48,0.00,OVC,,0.00,WeatherDisplay:10.37,2013-06-12 22:36:00,
2013-06-12 17:37:00,79.0,58.8,29.94,WNW,292,25.9,34.5,50,0.00,OVC,,0.00,WeatherDisplay:10.37,2013-06-12 22:37:00,
2013-06-12 17:38:00,79.0,58.8,29.94,WNW,292,22.5,36.8,50,0.00,OVC,,0.00,WeatherDisplay:10.37,2013-06-12 22:38:00,
2013-06-12 17:40:00,78.0,56.7,29.94,WNW,292,29.2,34.5,48,0.00,OVC,,0.00,WeatherDisplay:10.37,2013-06-12 22:40:00,
2013-06-12 17:41:00,78.0,56.7,29.94,WNW,292,29.2,35.7,48,0.00,OVC,,0.00,WeatherDisplay:10.37,2013-06-12 22:41:00,
2013-06-12 17:42:00,78.0,57.9,29.95,WNW,292,26.2,32.2,50,0.00,OVC,,0.00,WeatherDisplay:10.37,2013-06-12 22:42:00,
2013-06-12 17:43:00,78.0,57.9,29.95,WNW,292,21.4,31.1,50,0.00,OVC,,0.00,WeatherDisplay:10.37,2013-06-12 22:43:00,
2013-06-12 17:46:00,78.0,57.3,29.95,WNW,292,20.6,27.0,49,0.00,OVC,,0.00,WeatherDisplay:10.37,2013-06-12 22:46:00,
2013-06-12 17:47:00,78.0,57.3,29.95,WNW,292,24.1,28.8,49,0.00,OVC,,0.00,WeatherDisplay:10.37,2013-06-12 22:47:00,
2013-06-12 17:48:00,78.0,57.3,29.95,NW,315,22.2,28.8,49,0.00,OVC,,0.00,WeatherDisplay:10.37,2013-06-12 22:48:00,
2013-06-12 17:51:00,79.0,57.6,29.95,WNW,292,21.1,28.8,48,0.00,OVC,,0.00,WeatherDisplay:10.37,2013-06-12 22:51:00,
2013-06-12 17:53:00,78.0,57.3,29.96,WNW,292,18.9,24.2,49,0.00,OVC,,0.00,WeatherDisplay:10.37,2013-06-12 22:53:00,
2013-06-12 17:54:00,78.0,57.3,29.96,WNW,292,21.1,26.5,49,0.00,OVC,,0.00,WeatherDisplay:10.37,2013-06-12 22:54:00,
2013-06-12 17:56:00,78.0,57.3,29.96,WNW,292,22.7,33.0,49,0.00,OVC,,0.00,WeatherDisplay:10.37,2013-06-12 22:56:00,
2013-06-12 17:58:00,78.0,57.9,29.96,WNW,292,22.1,34.5,50,0.00,OVC,,0.00,WeatherDisplay:10.37,2013-06-12 22:58:00,
2013-06-12 18:00:00,77.0,56.9,29.96,WNW,292,21.2,27.6,50,0.00,OVC,,0.00,WeatherDisplay:10.37,2013-06-12 23:00:00,
2013-06-12 18:01:00,77.0,57.5,29.96,WNW,292,21.3,28.0,51,0.00,OVC,,0.00,WeatherDisplay:10.37,2013-06-12 23:01:00,
2013-06-12 18:02:00,77.0,56.9,29.96,WNW,292,21.3,26.5,50,0.00,OVC,,0.00,WeatherDisplay:10.37,2013-06-12 23:02:00,
2013-06-12 18:03:00,77.0,56.9,29.97,NW,315,18.9,25.3,50,0.00,OVC,,0.00,WeatherDisplay:10.37,2013-06-12 23:03:00,
2013-06-12 18:05:00,78.0,57.9,29.97,NW,315,19.6,26.5,50,0.00,OVC,,0.00,WeatherDisplay:10.37,2013-06-12 23:05:00,
2013-06-12 18:07:00,78.0,57.9,29.97,WNW,292,21.9,26.5,50,0.00,OVC,,0.00,WeatherDisplay:10.37,2013-06-12 23:07:00,
2013-06-12 18:08:00,78.0,58.4,29.97,WNW,292,14.8,26.5,51,0.00,OVC,,0.00,WeatherDisplay:10.37,2013-06-12 23:08:00,
2013-06-12 18:09:00,78.0,58.4,29.97,WNW,292,14.9,26.5,51,0.00,OVC,,0.00,WeatherDisplay:10.37,2013-06-12 23:09:00,
2013-06-12 18:11:00,78.0,57.9,29.97,WNW,292,18.0,27.0,50,0.00,OVC,,0.00,WeatherDisplay:10.37,2013-06-12 23:11:00,
2013-06-12 18:12:00,78.0,57.9,29.97,WNW,292,23.9,27.6,50,0.00,OVC,,0.00,WeatherDisplay:10.37,2013-06-12 23:12:00,
2013-06-12 18:13:00,78.0,57.9,29.97,WNW,292,25.0,31.1,50,0.00,OVC,,0.00,WeatherDisplay:10.37,2013-06-12 23:13:00,
2013-06-12 18:14:00,78.0,57.9,29.97,WNW,292,25.1,31.1,50,0.00,OVC,,0.00,WeatherDisplay:10.37,2013-06-12 23:14:00,
2013-06-12 18:16:00,78.0,57.9,29.97,WNW,292,23.4,28.8,50,0.00,OVC,,0.00,WeatherDisplay:10.37,2013-06-12 23:16:00,
2013-06-12 18:17:00,78.0,58.4,29.97,NW,315,21.7,27.6,51,0.00,OVC,,0.00,WeatherDisplay:10.37,2013-06-12 23:17:00,
2013-06-12 18:19:00,78.0,57.3,29.97,NW,315,24.2,34.0,49,0.00,OVC,,0.00,WeatherDisplay:10.37,2013-06-12 23:19:00,
2013-06-12 18:21:00,77.0,56.9,29.97,West,270,18.9,26.5,50,0.00,OVC,,0.00,WeatherDisplay:10.37,2013-06-12 23:21:00,
2013-06-12 18:22:00,77.0,56.9,29.97,WNW,292,16.3,24.2,50,0.00,OVC,,0.00,WeatherDisplay:10.37,2013-06-12 23:22:00,
2013-06-12 18:23:00,77.0,56.9,29.97,WNW,292,15.3,27.6,50,0.00,OVC,,0.00,WeatherDisplay:10.37,2013-06-12 23:23:00,
2013-06-12 18:24:00,76.0,58.2,29.97,NNW,337,16.3,25.3,54,0.00,OVC,,0.00,WeatherDisplay:10.37,2013-06-12 23:24:00,
2013-06-12 18:26:00,75.0,58.2,29.97,NNW,337,17.1,25.3,56,0.00,OVC,,0.00,WeatherDisplay:10.37,2013-06-12 23:26:00,
2013-06-12 18:27:00,75.0,58.7,29.97,NNW,337,22.9,29.9,57,0.00,OVC,,0.00,WeatherDisplay:10.37,2013-06-12 23:27:00,
2013-06-12 18:28:00,75.0,58.7,29.97,NNW,337,20.9,28.8,57,0.00,OVC,,0.00,WeatherDisplay:10.37,2013-06-12 23:28:00,
2013-06-12 18:29:00,75.0,58.7,29.97,WNW,292,19.7,31.1,57,0.00,OVC,,0.00,WeatherDisplay:10.37,2013-06-12 23:29:00,
2013-06-12 18:31:00,74.0,58.3,29.97,NW,315,23.9,31.1,58,0.00,OVC,,0.00,WeatherDisplay:10.37,2013-06-12 23:31:00,
2013-06-12 18:32:00,75.0,59.2,30.00,WNW,292,19.0,28.8,58,0.00,OVC,,0.00,WeatherDisplay:10.37,2013-06-12 23:32:00,
2013-06-12 18:33:00,75.0,59.2,30.00,NW,315,18.1,28.0,58,0.00,OVC,,0.00,WeatherDisplay:10.37,2013-06-12 23:33:00,
2013-06-12 18:34:00,75.0,58.2,30.00,NNW,337,23.1,29.9,56,0.00,OVC,,0.00,WeatherDisplay:10.37,2013-06-12 23:34:00,
2013-06-12 18:37:00,74.0,57.8,30.00,NNW,337,20.4,31.1,57,0.00,OVC,,0.00,WeatherDisplay:10.37,2013-06-12 23:37:00,
2013-06-12 18:38:00,74.0,58.3,30.00,NW,315,21.9,27.6,58,0.00,OVC,,0.00,WeatherDisplay:10.37,2013-06-12 23:38:00,
2013-06-12 18:39:00,74.0,58.3,30.00,NNW,337,24.7,39.1,58,0.00,OVC,,0.00,WeatherDisplay:10.37,2013-06-12 23:39:00,
2013-06-12 18:40:00,74.0,58.3,30.00,NNW,337,20.4,33.4,58,0.00,OVC,,0.00,WeatherDisplay:10.37,2013-06-12 23:40:00,
2013-06-12 18:42:00,74.0,57.3,30.00,WNW,292,20.9,32.2,56,0.00,OVC,,0.00,WeatherDisplay:10.37,2013-06-12 23:42:00,
2013-06-12 18:43:00,74.0,57.3,30.01,NNW,337,24.2,29.9,56,0.00,OVC,,0.00,WeatherDisplay:10.37,2013-06-12 23:43:00,
2013-06-12 18:44:00,74.0,58.3,30.01,NW,315,21.3,32.2,58,0.00,OVC,,0.00,WeatherDisplay:10.37,2013-06-12 23:44:00,
2013-06-12 18:45:00,74.0,58.3,30.01,WNW,292,17.9,26.5,58,0.00,OVC,,0.00,WeatherDisplay:10.37,2013-06-12 23:45:00,
2013-06-12 18:47:00,74.0,57.8,30.01,NNW,337,16.1,25.3,57,0.00,OVC,,0.00,WeatherDisplay:10.37,2013-06-12 23:47:00,
2013-06-12 18:48:00,74.0,57.3,30.01,NNW,337,18.5,28.8,56,0.00,OVC,,0.00,WeatherDisplay:10.37,2013-06-12 23:48:00,
2013-06-12 18:49:00,74.0,57.3,30.01,NNW,337,18.9,31.0,56,0.00,OVC,,0.00,WeatherDisplay:10.37,2013-06-12 23:49:00,
2013-06-12 18:50:00,74.0,57.3,30.01,NNW,337,23.6,32.2,56,0.00,OVC,,0.00,WeatherDisplay:10.37,2013-06-12 23:50:00,
2013-06-12 18:52:00,74.0,57.3,30.01,NNW,337,26.5,39.1,56,0.00,OVC,,0.00,WeatherDisplay:10.37,2013-06-12 23:52:00,
2013-06-12 18:54:00,74.0,57.8,30.02,NW,315,16.3,27.6,57,0.00,OVC,,0.00,WeatherDisplay:10.37,2013-06-12 23:54:00,
2013-06-12 18:55:00,74.0,57.8,30.02,NW,315,20.5,33.0,57,0.00,OVC,,0.00,WeatherDisplay:10.37,2013-06-12 23:55:00,
2013-06-12 18:57:00,73.0,57.3,30.02,NNW,337,18.0,25.3,58,0.00,OVC,,0.00,WeatherDisplay:10.37,2013-06-12 23:57:00,
2013-06-12 18:59:00,73.0,56.9,30.02,WNW,292,17.2,26.5,57,0.00,OVC,,0.00,WeatherDisplay:10.37,2013-06-12 23:59:00,
2013-06-12 19:00:00,73.0,56.9,30.02,NW,315,14.8,23.0,57,0.00,OVC,,0.00,WeatherDisplay:10.37,2013-06-13 00:00:00,
2013-06-12 19:02:00,73.0,57.3,30.02,NNW,337,13.5,18.4,58,0.00,OVC,,0.00,WeatherDisplay:10.37,2013-06-13 00:02:00,
2013-06-12 19:04:00,73.0,57.3,30.04,NW,315,18.3,26.5,58,0.00,OVC,,0.00,WeatherDisplay:10.37,2013-06-13 00:04:00,
2013-06-12 19:05:00,73.0,56.4,30.04,WNW,292,24.3,32.2,56,0.00,OVC,,0.00,WeatherDisplay:10.37,2013-06-13 00:05:00,
2013-06-12 19:07:00,73.0,56.4,30.04,NNW,337,26.0,33.4,56,0.00,OVC,,0.00,WeatherDisplay:10.37,2013-06-13 00:07:00,
2013-06-12 19:09:00,73.0,55.9,30.04,WNW,292,20.4,29.0,55,0.00,OVC,,0.00,WeatherDisplay:10.37,2013-06-13 00:09:00,
2013-06-12 19:10:00,73.0,55.9,30.04,WNW,292,26.4,36.8,55,0.00,OVC,,0.00,WeatherDisplay:10.37,2013-06-13 00:10:00,
2013-06-12 19:11:00,73.0,55.9,30.04,WNW,292,24.0,32.2,55,0.00,OVC,,0.00,WeatherDisplay:10.37,2013-06-13 00:11:00,
2013-06-12 19:12:00,72.0,54.9,30.03,NW,315,25.4,26.5,55,0.00,OVC,,0.00,WeatherDisplay:10.37,2013-06-13 00:12:00,
2013-06-12 19:14:00,72.0,55.4,30.03,NW,315,23.0,41.4,56,0.00,OVC,,0.00,WeatherDisplay:10.37,2013-06-13 00:14:00,
2013-06-12 19:15:00,72.0,54.9,30.03,NW,315,19.0,32.0,55,0.00,OVC,,0.00,WeatherDisplay:10.37,2013-06-13 00:15:00,
2013-06-12 19:16:00,72.0,54.9,30.03,NW,315,26.6,33.4,55,0.00,OVC,,0.00,WeatherDisplay:10.37,2013-06-13 00:16:00,
2013-06-12 19:18:00,72.0,54.9,30.03,NW,315,25.4,34.5,55,0.00,OVC,,0.00,WeatherDisplay:10.37,2013-06-13 00:18:00,
2013-06-12 19:19:00,72.0,55.4,30.03,NW,315,28.0,33.4,56,0.00,OVC,,0.00,WeatherDisplay:10.37,2013-06-13 00:19:00,
2013-06-12 19:20:00,72.0,55.4,30.03,WNW,292,25.5,39.1,56,0.00,OVC,,0.00,WeatherDisplay:10.37,2013-06-13 00:20:00,
2013-06-12 19:21:00,71.0,55.5,30.03,WNW,292,19.3,27.6,58,0.00,OVC,,0.00,WeatherDisplay:10.37,2013-06-13 00:21:00,
2013-06-12 19:23:00,71.0,55.5,30.05,WNW,292,16.9,19.6,58,0.00,OVC,,0.00,WeatherDisplay:10.37,2013-06-13 00:23:00,
2013-06-12 19:25:00,71.0,55.5,30.05,WNW,292,14.9,19.6,58,0.00,OVC,,0.00,WeatherDisplay:10.37,2013-06-13 00:25:00,
2013-06-12 19:26:00,71.0,55.5,30.05,NW,315,24.1,33.0,58,0.00,OVC,,0.00,WeatherDisplay:10.37,2013-06-13 00:26:00,
2013-06-12 19:28:00,71.0,55.9,30.05,WNW,292,18.3,27.6,59,0.00,OVC,,0.00,WeatherDisplay:10.37,2013-06-13 00:28:00,
2013-06-12 19:30:00,71.0,55.5,30.05,NW,315,19.6,28.8,58,0.00,OVC,,0.00,WeatherDisplay:10.37,2013-06-13 00:30:00,
2013-06-12 19:31:00,71.0,55.5,30.05,NW,315,19.7,28.8,58,0.00,OVC,,0.00,WeatherDisplay:10.37,2013-06-13 00:31:00,
2013-06-12 19:33:00,71.0,54.5,30.06,NW,315,22.2,26.5,56,0.00,OVC,,0.00,WeatherDisplay:10.37,2013-06-13 00:33:00,
2013-06-12 19:35:00,72.0,55.4,30.06,NNW,337,21.7,34.5,56,0.00,OVC,,0.00,WeatherDisplay:10.37,2013-06-13 00:35:00,
2013-06-12 19:36:00,72.0,55.4,30.06,NNW,337,17.9,28.8,56,0.00,OVC,,0.00,WeatherDisplay:10.37,2013-06-13 00:36:00,
2013-06-12 19:37:00,71.0,55.0,30.06,WNW,292,21.4,27.0,57,0.00,OVC,,0.00,WeatherDisplay:10.37,2013-06-13 00:37:00,
2013-06-12 19:38:00,72.0,55.9,30.06,NW,315,15.8,29.9,57,0.00,OVC,,0.00,WeatherDisplay:10.37,2013-06-13 00:38:00,
2013-06-12 19:40:00,72.0,55.4,30.06,WNW,292,21.2,34.5,56,0.00,OVC,,0.00,WeatherDisplay:10.37,2013-06-13 00:40:00,
2013-06-12 19:41:00,72.0,55.4,30.06,NW,315,21.3,27.6,56,0.00,OVC,,0.00,WeatherDisplay:10.37,2013-06-13 00:41:00,
2013-06-12 19:42:00,72.0,54.9,30.07,WNW,292,21.8,26.5,55,0.00,OVC,,0.00,WeatherDisplay:10.37,2013-06-13 00:42:00,
2013-06-12 19:43:00,72.0,54.9,30.07,NW,315,19.7,27.6,55,0.00,OVC,,0.00,WeatherDisplay:10.37,2013-06-13 00:43:00,
2013-06-12 19:45:00,71.0,54.5,30.07,WNW,292,20.7,33.4,56,0.00,OVC,,0.00,WeatherDisplay:10.37,2013-06-13 00:45:00,
2013-06-12 19:46:00,71.0,54.5,30.07,WNW,292,20.6,27.6,56,0.00,OVC,,0.00,WeatherDisplay:10.37,2013-06-13 00:46:00,
2013-06-12 19:48:00,71.0,54.5,30.07,WNW,292,22.9,35.0,56,0.00,OVC,,0.00,WeatherDisplay:10.37,2013-06-13 00:48:00,
2013-06-12 19:51:00,70.0,54.5,30.07,NNW,337,25.0,32.2,58,0.00,OVC,,0.00,WeatherDisplay:10.37,2013-06-13 00:51:00,
2013-06-12 19:53:00,70.0,54.5,30.06,NW,315,17.5,27.6,58,0.00,OVC,,0.00,WeatherDisplay:10.37,2013-06-13 00:53:00,
2013-06-12 19:56:00,70.0,54.5,30.06,NW,315,22.5,32.2,58,0.00,OVC,,0.00,WeatherDisplay:10.37,2013-06-13 00:56:00,
2013-06-12 19:58:00,70.0,55.5,30.06,NNW,337,17.5,26.5,60,0.00,OVC,,0.00,WeatherDisplay:10.37,2013-06-13 00:58:00,
2013-06-12 19:59:00,70.0,55.5,30.06,NW,315,15.9,23.0,60,0.00,OVC,,0.00,WeatherDisplay:10.37,2013-06-13 00:59:00,
2013-06-12 20:01:00,70.0,55.5,30.06,NW,315,20.1,25.3,60,0.00,OVC,,0.00,WeatherDisplay:10.37,2013-06-13 01:01:00,
2013-06-12 20:04:00,70.0,55.5,30.08,NW,315,14.2,26.5,60,0.00,OVC,,0.00,WeatherDisplay:10.37,2013-06-13 01:04:00,
2013-06-12 20:06:00,70.0,55.5,30.08,NW,315,21.9,32.2,60,0.00,OVC,,0.00,WeatherDisplay:10.37,2013-06-13 01:06:00,
2013-06-12 20:07:00,70.0,55.5,30.08,WNW,292,23.0,31.1,60,0.00,OVC,,0.00,WeatherDisplay:10.37,2013-06-13 01:07:00,
2013-06-12 20:09:00,69.0,55.0,30.08,NW,315,17.1,25.3,61,0.00,OVC,,0.00,WeatherDisplay:10.37,2013-06-13 01:09:00,
2013-06-12 20:11:00,69.0,55.9,30.08,NNW,337,15.1,27.6,63,0.00,OVC,,0.00,WeatherDisplay:10.37,2013-06-13 01:11:00,
2013-06-12 20:12:00,69.0,55.9,30.08,NNW,337,13.6,19.6,63,0.00,OVC,,0.00,WeatherDisplay:10.37,2013-06-13 01:12:00,
2013-06-12 20:14:00,69.0,55.9,30.09,NNW,337,14.6,21.9,63,0.00,OVC,,0.00,WeatherDisplay:10.37,2013-06-13 01:14:00,
2013-06-12 20:17:00,69.0,55.9,30.09,NW,315,17.2,26.5,63,0.00,OVC,,0.00,WeatherDisplay:10.37,2013-06-13 01:17:00,
2013-06-12 20:19:00,69.0,55.9,30.09,NNW,337,21.1,24.2,63,0.00,OVC,,0.00,WeatherDisplay:10.37,2013-06-13 01:19:00,
2013-06-12 20:20:00,69.0,55.9,30.09,WNW,292,19.4,24.2,63,0.00,OVC,,0.00,WeatherDisplay:10.37,2013-06-13 01:20:00,
2013-06-12 20:22:00,69.0,56.7,30.09,NNW,337,15.8,21.9,65,0.00,OVC,,0.00,WeatherDisplay:10.37,2013-06-13 01:22:00,
2013-06-12 20:24:00,69.0,55.9,30.10,NNW,337,14.9,32.2,63,0.00,OVC,,0.00,WeatherDisplay:10.37,2013-06-13 01:24:00,
2013-06-12 20:25:00,69.0,55.9,30.10,NW,315,18.6,27.6,63,0.00,OVC,,0.00,WeatherDisplay:10.37,2013-06-13 01:25:00,
2013-06-12 20:27:00,68.0,55.8,30.10,WNW,292,15.4,24.2,65,0.00,OVC,,0.00,WeatherDisplay:10.37,2013-06-13 01:27:00,
2013-06-12 20:30:00,68.0,55.4,30.10,NNW,337,19.2,25.3,64,0.00,OVC,,0.00,WeatherDisplay:10.37,2013-06-13 01:30:00,
2013-06-12 20:32:00,68.0,55.4,30.10,WNW,292,18.5,26.0,64,0.00,OVC,,0.00,WeatherDisplay:10.37,2013-06-13 01:32:00,
2013-06-12 20:33:00,68.0,55.4,30.10,WNW,292,20.2,28.0,64,0.00,OVC,,0.00,WeatherDisplay:10.37,2013-06-13 01:33:00,
2013-06-12 20:35:00,68.0,55.8,30.10,NW,315,12.6,19.6,65,0.00,OVC,,0.00,WeatherDisplay:10.37,2013-06-13 01:35:00,
2013-06-12 20:36:00,68.0,55.8,30.10,NNW,337,13.8,19.6,65,0.00,OVC,,0.00,WeatherDisplay:10.37,2013-06-13 01:36:00,
2013-06-12 20:37:00,68.0,55.8,30.10,NNW,337,16.6,18.4,65,0.00,OVC,,0.00,WeatherDisplay:10.37,2013-06-13 01:37:00,
2013-06-12 20:38:00,68.0,55.8,30.10,NNW,337,17.0,21.9,65,0.00,OVC,,0.00,WeatherDisplay:10.37,2013-06-13 01:38:00,
2013-06-12 20:39:00,68.0,55.8,30.10,North,360,11.8,18.0,65,0.00,OVC,,0.00,WeatherDisplay:10.37,2013-06-13 01:39:00,
2013-06-12 20:40:00,67.0,54.8,30.10,NNW,337,13.0,25.3,65,0.00,OVC,,0.00,WeatherDisplay:10.37,2013-06-13 01:40:00,
2013-06-12 20:41:00,67.0,54.8,30.10,NW,315,13.0,18.4,65,0.00,OVC,,0.00,WeatherDisplay:10.37,2013-06-13 01:41:00,
2013-06-12 20:43:00,67.0,54.8,30.11,NNW,337,10.6,16.1,65,0.00,OVC,,0.00,WeatherDisplay:10.37,2013-06-13 01:43:00,
2013-06-12 20:44:00,67.0,54.8,30.11,NNW,337,12.7,17.3,65,0.00,OVC,,0.00,WeatherDisplay:10.37,2013-06-13 01:44:00,
2013-06-12 20:45:00,67.0,54.8,30.11,NW,315,12.4,22.0,65,0.00,OVC,,0.00,WeatherDisplay:10.37,2013-06-13 01:45:00,
2013-06-12 20:47:00,67.0,54.8,30.11,NNW,337,15.9,20.7,65,0.00,OVC,,0.00,WeatherDisplay:10.37,2013-06-13 01:47:00,
2013-06-12 20:48:00,67.0,54.8,30.11,NNW,337,14.1,19.6,65,0.00,OVC,,0.00,WeatherDisplay:10.37,2013-06-13 01:48:00,
2013-06-12 20:49:00,67.0,54.8,30.11,NW,315,16.5,21.9,65,0.00,OVC,,0.00,WeatherDisplay:10.37,2013-06-13 01:49:00,
2013-06-12 20:51:00,67.0,54.8,30.11,NW,315,14.0,19.6,65,0.00,OVC,,0.00,WeatherDisplay:10.37,2013-06-13 01:51:00,
2013-06-12 20:52:00,67.0,54.8,30.11,NW,315,14.3,19.6,65,0.00,OVC,,0.00,WeatherDisplay:10.37,2013-06-13 01:52:00,
2013-06-12 20:53:00,67.0,54.8,30.12,WNW,292,14.3,18.4,65,0.00,OVC,,0.00,WeatherDisplay:10.37,2013-06-13 01:53:00,
2013-06-12 20:54:00,67.0,55.7,30.12,NW,315,12.7,18.4,67,0.00,OVC,,0.00,WeatherDisplay:10.37,2013-06-13 01:54:00,
2013-06-12 20:56:00,66.0,54.7,30.12,NW,315,12.9,18.0,67,0.00,OVC,,0.00,WeatherDisplay:10.37,2013-06-13 01:56:00,
2013-06-12 20:57:00,66.0,54.3,30.12,NW,315,14.1,18.4,66,0.00,OVC,,0.00,WeatherDisplay:10.37,2013-06-13 01:57:00,
2013-06-12 20:58:00,66.0,54.3,30.12,NNW,337,13.4,17.3,66,0.00,OVC,,0.00,WeatherDisplay:10.37,2013-06-13 01:58:00,
2013-06-12 21:00:00,66.0,54.7,30.12,NNW,337,11.5,16.1,67,0.00,OVC,,0.00,WeatherDisplay:10.37,2013-06-13 02:00:00,
2013-06-12 21:01:00,66.0,54.7,30.12,WNW,292,9.5,12.7,67,0.00,OVC,,0.00,WeatherDisplay:10.37,2013-06-13 02:01:00,
2013-06-12 21:02:00,66.0,54.3,30.13,NW,315,11.8,15.0,66,0.00,OVC,,0.00,WeatherDisplay:10.37,2013-06-13 02:02:00,
2013-06-12 21:03:00,66.0,54.3,30.13,NW,315,12.7,18.4,66,0.00,OVC,,0.00,WeatherDisplay:10.37,2013-06-13 02:03:00,
2013-06-12 21:05:00,66.0,54.7,30.13,NW,315,13.7,17.3,67,0.00,OVC,,0.00,WeatherDisplay:10.37,2013-06-13 02:05:00,
2013-06-12 21:06:00,66.0,54.3,30.13,NNW,337,13.4,17.3,66,0.00,OVC,,0.00,WeatherDisplay:10.37,2013-06-13 02:06:00,
2013-06-12 21:07:00,66.0,54.3,30.13,NW,315,12.8,17.3,66,0.00,OVC,,0.00,WeatherDisplay:10.37,2013-06-13 02:07:00,
2013-06-12 21:08:00,66.0,54.3,30.13,NNW,337,12.7,18.4,66,0.00,OVC,,0.00,WeatherDisplay:10.37,2013-06-13 02:08:00,
2013-06-12 21:10:00,66.0,54.3,30.13,NNW,337,12.9,17.3,66,0.00,OVC,,0.00,WeatherDisplay:10.37,2013-06-13 02:10:00,
2013-06-12 21:11:00,66.0,54.3,30.13,NNW,337,10.6,15.0,66,0.00,OVC,,0.00,WeatherDisplay:10.37,2013-06-13 02:11:00,
2013-06-12 21:12:00,66.0,54.3,30.14,NW,315,12.8,18.4,66,0.00,OVC,,0.00,WeatherDisplay:10.37,2013-06-13 02:12:00,
2013-06-12 21:13:00,66.0,54.3,30.14,NNW,337,11.9,19.6,66,0.00,OVC,,0.00,WeatherDisplay:10.37,2013-06-13 02:13:00,
2013-06-12 21:15:00,66.0,54.7,30.14,NNW,337,14.3,19.6,67,0.00,OVC,,0.00,WeatherDisplay:10.37,2013-06-13 02:15:00,
2013-06-12 21:16:00,66.0,54.7,30.14,NW,315,12.4,17.3,67,0.00,OVC,,0.00,WeatherDisplay:10.37,2013-06-13 02:16:00,
2013-06-12 21:18:00,66.0,54.7,30.14,NNW,337,10.1,19.6,67,0.00,OVC,,0.00,WeatherDisplay:10.37,2013-06-13 02:18:00,
2013-06-12 21:20:00,65.0,54.2,30.14,WNW,292,10.5,12.0,68,0.00,OVC,,0.00,WeatherDisplay:10.37,2013-06-13 02:20:00,
2013-06-12 21:21:00,65.0,54.2,30.14,NW,315,11.5,13.8,68,0.00,OVC,,0.00,WeatherDisplay:10.37,2013-06-13 02:21:00,
2013-06-12 21:23:00,65.0,54.2,30.15,NW,315,10.6,12.7,68,0.00,OVC,,0.00,WeatherDisplay:10.37,2013-06-13 02:23:00,
2013-06-12 21:26:00,65.0,54.6,30.15,NW,315,11.9,17.0,69,0.00,OVC,,0.00,WeatherDisplay:10.37,2013-06-13 02:26:00,
2013-06-12 21:28:00,65.0,54.6,30.15,NW,315,15.5,19.0,69,0.00,OVC,,0.00,WeatherDisplay:10.37,2013-06-13 02:28:00,
2013-06-12 21:29:00,65.0,54.6,30.15,NW,315,16.4,18.0,69,0.00,OVC,,0.00,WeatherDisplay:10.37,2013-06-13 02:29:00,
2013-06-12 21:31:00,65.0,54.6,30.15,NNW,337,14.1,20.7,69,0.00,OVC,,0.00,WeatherDisplay:10.37,2013-06-13 02:31:00,
2013-06-12 21:34:00,65.0,55.0,30.15,NW,315,11.8,20.7,70,0.00,OVC,,0.00,WeatherDisplay:10.37,2013-06-13 02:34:00,
2013-06-12 21:35:00,65.0,55.0,30.15,NNW,337,11.5,18.0,70,0.00,OVC,,0.00,WeatherDisplay:10.37,2013-06-13 02:35:00,
2013-06-12 21:36:00,65.0,55.0,30.15,NNW,337,12.9,19.6,70,0.00,OVC,,0.00,WeatherDisplay:10.37,2013-06-13 02:36:00,
2013-06-12 21:39:00,65.0,55.0,30.15,NNW,337,11.4,21.9,70,0.00,OVC,,0.00,WeatherDisplay:10.37,2013-06-13 02:39:00,
2013-06-12 21:40:00,65.0,54.6,30.15,NNW,337,15.9,20.7,69,0.00,OVC,,0.00,WeatherDisplay:10.37,2013-06-13 02:40:00,
2013-06-12 21:41:00,65.0,54.6,30.15,NW,315,18.2,25.3,69,0.00,OVC,,0.00,WeatherDisplay:10.37,2013-06-13 02:41:00,
2013-06-12 21:44:00,65.0,54.6,30.16,NNW,337,13.4,18.4,69,0.00,OVC,,0.00,WeatherDisplay:10.37,2013-06-13 02:44:00,
2013-06-12 21:45:00,65.0,54.6,30.16,NNW,337,13.7,19.6,69,0.00,OVC,,0.00,WeatherDisplay:10.37,2013-06-13 02:45:00,
2013-06-12 21:46:00,65.0,54.6,30.16,NNW,337,14.2,19.6,69,0.00,OVC,,0.00,WeatherDisplay:10.37,2013-06-13 02:46:00,
2013-06-12 21:49:00,65.0,54.6,30.16,NNW,337,12.0,19.6,69,0.00,OVC,,0.00,WeatherDisplay:10.37,2013-06-13 02:49:00,
2013-06-12 21:50:00,65.0,54.6,30.16,NNW,337,10.9,19.6,69,0.00,OVC,,0.00,WeatherDisplay:10.37,2013-06-13 02:50:00,
2013-06-12 21:51:00,64.0,53.6,30.16,North,360,11.6,15.0,69,0.00,OVC,,0.00,WeatherDisplay:10.37,2013-06-13 02:51:00,
2013-06-12 21:54:00,64.0,53.6,30.17,NNW,337,11.7,15.0,69,0.00,OVC,,0.00,WeatherDisplay:10.37,2013-06-13 02:54:00,
2013-06-12 21:55:00,64.0,53.6,30.17,NNW,337,11.4,15.0,69,0.00,OVC,,0.00,WeatherDisplay:10.37,2013-06-13 02:55:00,
2013-06-12 21:56:00,64.0,53.6,30.17,NNW,337,12.3,18.4,69,0.00,OVC,,0.00,WeatherDisplay:10.37,2013-06-13 02:56:00,
2013-06-12 21:57:00,64.0,53.6,30.17,NNW,337,12.0,19.6,69,0.00,OVC,,0.00,WeatherDisplay:10.37,2013-06-13 02:57:00,
2013-06-12 21:59:00,64.0,53.6,30.17,NW,315,11.7,19.6,69,0.00,OVC,,0.00,WeatherDisplay:10.37,2013-06-13 02:59:00,
2013-06-12 22:00:00,64.0,53.6,30.17,NNW,337,10.5,13.8,69,0.00,OVC,,0.00,WeatherDisplay:10.37,2013-06-13 03:00:00,
2013-06-12 22:01:00,64.0,53.6,30.17,NW,315,12.5,15.0,69,0.00,OVC,,0.00,WeatherDisplay:10.37,2013-06-13 03:01:00,
2013-06-12 22:02:00,64.0,53.6,30.17,NNW,337,15.4,20.7,69,0.00,OVC,,0.00,WeatherDisplay:10.37,2013-06-13 03:02:00,
2013-06-12 22:04:00,64.0,54.0,30.17,NNW,337,10.2,16.1,70,0.00,OVC,,0.00,WeatherDisplay:10.37,2013-06-13 03:04:00,
2013-06-12 22:05:00,64.0,54.0,30.17,NNW,337,9.9,12.7,70,0.00,OVC,,0.00,WeatherDisplay:10.37,2013-06-13 03:05:00,
2013-06-12 22:06:00,64.0,54.0,30.17,NNW,337,8.8,10.4,70,0.00,OVC,,0.00,WeatherDisplay:10.37,2013-06-13 03:06:00,
2013-06-12 22:07:00,64.0,54.4,30.17,North,360,8.8,17.3,71,0.00,OVC,,0.00,WeatherDisplay:10.37,2013-06-13 03:07:00,
2013-06-12 22:08:00,64.0,54.4,30.17,North,360,8.3,11.5,71,0.00,OVC,,0.00,WeatherDisplay:10.37,2013-06-13 03:08:00,
2013-06-12 22:10:00,64.0,54.4,30.17,NNW,337,13.4,13.4,71,0.00,OVC,,0.00,WeatherDisplay:10.37,2013-06-13 03:10:00,
2013-06-12 22:11:00,64.0,54.4,30.17,North,360,12.8,18.4,71,0.00,OVC,,0.00,WeatherDisplay:10.37,2013-06-13 03:11:00,
2013-06-12 22:12:00,64.0,54.4,30.19,NNE,22,10.7,19.6,71,0.00,OVC,,0.00,WeatherDisplay:10.37,2013-06-13 03:12:00,
2013-06-12 22:13:00,64.0,54.4,30.19,NNE,22,11.0,16.1,71,0.00,OVC,,0.00,WeatherDisplay:10.37,2013-06-13 03:13:00,
2013-06-12 22:15:00,63.0,53.1,30.19,NNW,337,17.1,24.2,70,0.00,OVC,,0.00,WeatherDisplay:10.37,2013-06-13 03:15:00,
2013-06-12 22:16:00,63.0,53.1,30.19,NNW,337,14.3,19.6,70,0.00,OVC,,0.00,WeatherDisplay:10.37,2013-06-13 03:16:00,
2013-06-12 22:18:00,63.0,53.4,30.19,North,360,12.7,18.4,71,0.00,OVC,,0.00,WeatherDisplay:10.37,2013-06-13 03:18:00,
2013-06-12 22:20:00,63.0,53.4,30.19,NNW,337,13.1,18.4,71,0.00,OVC,,0.00,WeatherDisplay:10.37,2013-06-13 03:20:00,
2013-06-12 22:21:00,63.0,53.4,30.19,NW,315,11.6,19.6,71,0.00,OVC,,0.00,WeatherDisplay:10.37,2013-06-13 03:21:00,
2013-06-12 22:23:00,63.0,53.4,30.19,NNW,337,11.0,16.1,71,0.00,OVC,,0.00,WeatherDisplay:10.37,2013-06-13 03:23:00,
2013-06-12 22:25:00,63.0,53.4,30.19,NNW,337,12.0,17.0,71,0.00,OVC,,0.00,WeatherDisplay:10.37,2013-06-13 03:25:00,
2013-06-12 22:26:00,63.0,53.4,30.19,NNW,337,15.9,19.6,71,0.00,OVC,,0.00,WeatherDisplay:10.37,2013-06-13 03:26:00,
2013-06-12 22:28:00,63.0,53.4,30.19,NNW,337,14.8,21.0,71,0.00,OVC,,0.00,WeatherDisplay:10.37,2013-06-13 03:28:00,
2013-06-12 22:30:00,63.0,53.4,30.19,North,360,10.7,18.4,71,0.00,OVC,,0.00,WeatherDisplay:10.37,2013-06-13 03:30:00,
2013-06-12 22:31:00,63.0,53.4,30.19,NNE,22,11.2,13.8,71,0.00,OVC,,0.00,WeatherDisplay:10.37,2013-06-13 03:31:00,
2013-06-12 22:32:00,63.0,53.4,30.19,NNW,337,9.4,11.5,71,0.00,OVC,,0.00,WeatherDisplay:10.37,2013-06-13 03:32:00,
2013-06-12 22:34:00,63.0,53.4,30.20,North,360,9.0,11.5,71,0.00,OVC,,0.00,WeatherDisplay:10.37,2013-06-13 03:34:00,
2013-06-12 22:35:00,63.0,53.4,30.20,NNW,337,10.2,17.3,71,0.00,OVC,,0.00,WeatherDisplay:10.37,2013-06-13 03:35:00,
2013-06-12 22:36:00,63.0,53.4,30.20,North,360,11.3,11.5,71,0.00,OVC,,0.00,WeatherDisplay:10.37,2013-06-13 03:36:00,
2013-06-12 22:37:00,63.0,53.4,30.20,North,360,11.7,15.0,71,0.00,OVC,,0.00,WeatherDisplay:10.37,2013-06-13 03:37:00,
2013-06-12 22:39:00,63.0,53.4,30.20,NNE,22,9.5,15.0,71,0.00,OVC,,0.00,WeatherDisplay:10.37,2013-06-13 03:39:00,
2013-06-12 22:40:00,63.0,53.4,30.20,NNE,22,10.7,15.0,71,0.00,OVC,,0.00,WeatherDisplay:10.37,2013-06-13 03:40:00,
2013-06-12 22:42:00,63.0,53.4,30.20,NNW,337,9.5,19.6,71,0.00,OVC,,0.00,WeatherDisplay:10.37,2013-06-13 03:42:00,
2013-06-12 22:44:00,62.0,52.5,30.21,NNW,337,10.4,11.5,71,0.00,OVC,,0.00,WeatherDisplay:10.37,2013-06-13 03:44:00,
2013-06-12 22:45:00,62.0,52.9,30.21,NNW,337,9.5,15.0,72,0.00,OVC,,0.00,WeatherDisplay:10.37,2013-06-13 03:45:00,
2013-06-12 22:47:00,62.0,52.5,30.21,NNW,337,11.4,15.0,71,0.00,OVC,,0.00,WeatherDisplay:10.37,2013-06-13 03:47:00,
2013-06-12 22:48:00,62.0,52.9,30.21,NNW,337,8.3,13.8,72,0.00,OVC,,0.00,WeatherDisplay:10.37,2013-06-13 03:48:00,
2013-06-12 22:49:00,62.0,52.9,30.21,NNW,337,9.9,15.0,72,0.00,OVC,,0.00,WeatherDisplay:10.37,2013-06-13 03:49:00,
2013-06-12 22:50:00,62.0,52.5,30.21,North,360,10.2,15.0,71,0.00,OVC,,0.00,WeatherDisplay:10.37,2013-06-13 03:50:00,
2013-06-12 22:52:00,62.0,52.5,30.21,NNW,337,10.7,12.7,71,0.00,OVC,,0.00,WeatherDisplay:10.37,2013-06-13 03:52:00,
2013-06-12 22:53:00,62.0,52.9,30.21,North,360,9.7,13.8,72,0.00,OVC,,0.00,WeatherDisplay:10.37,2013-06-13 03:53:00,
2013-06-12 22:54:00,62.0,52.5,30.21,NNW,337,10.6,13.8,71,0.00,OVC,,0.00,WeatherDisplay:10.37,2013-06-13 03:54:00,
2013-06-12 22:55:00,62.0,52.9,30.21,NW,315,8.2,13.8,72,0.00,OVC,,0.00,WeatherDisplay:10.37,2013-06-13 03:55:00,
2013-06-12 22:57:00,62.0,52.9,30.21,NNW,337,11.1,15.0,72,0.00,OVC,,0.00,WeatherDisplay:10.37,2013-06-13 03:57:00,
2013-06-12 22:59:00,62.0,52.9,30.21,NNW,337,7.8,10.4,72,0.00,OVC,,0.00,WeatherDisplay:10.37,2013-06-13 03:59:00,
2013-06-12 23:00:00,62.0,52.9,30.21,NW,315,10.5,13.8,72,0.00,OVC,,0.00,WeatherDisplay:10.37,2013-06-13 04:00:00,
2013-06-12 23:01:00,62.0,52.9,30.21,NNW,337,10.6,13.8,72,0.00,OVC,,0.00,WeatherDisplay:10.37,2013-06-13 04:01:00,
2013-06-12 23:06:00,62.0,52.9,30.21,NNW,337,6.5,10.4,72,0.00,OVC,,0.00,WeatherDisplay:10.37,2013-06-13 04:06:00,
2013-06-12 23:11:00,62.0,52.9,30.21,NNE,22,12.0,18.4,72,0.00,OVC,,0.00,WeatherDisplay:10.37,2013-06-13 04:11:00,
2013-06-12 23:16:00,62.0,53.2,30.21,NNW,337,7.5,10.4,73,0.00,OVC,,0.00,WeatherDisplay:10.37,2013-06-13 04:16:00,
2013-06-12 23:17:00,62.0,53.2,30.21,NW,315,8.8,11.5,73,0.00,OVC,,0.00,WeatherDisplay:10.37,2013-06-13 04:17:00,
2013-06-12 23:21:00,62.0,53.2,30.21,NNW,337,8.6,10.4,73,0.00,OVC,,0.00,WeatherDisplay:10.37,2013-06-13 04:21:00,
2013-06-12 23:22:00,62.0,52.9,30.22,NNW,337,6.9,9.2,72,0.00,OVC,,0.00,WeatherDisplay:10.37,2013-06-13 04:22:00,
2013-06-12 23:26:00,61.0,52.7,30.22,NNE,22,5.2,8.1,74,0.00,OVC,,0.00,WeatherDisplay:10.37,2013-06-13 04:26:00,
2013-06-12 23:27:00,61.0,52.7,30.22,NNW,337,5.3,8.1,74,0.00,OVC,,0.00,WeatherDisplay:10.37,2013-06-13 04:27:00,
2013-06-12 23:28:00,61.0,52.7,30.22,NNW,337,8.1,9.2,74,0.00,OVC,,0.00,WeatherDisplay:10.37,2013-06-13 04:28:00,
2013-06-12 23:31:00,61.0,52.7,30.22,NNW,337,7.1,9.2,74,0.00,OVC,,0.00,WeatherDisplay:10.37,2013-06-13 04:31:00,
2013-06-12 23:32:00,61.0,52.7,30.22,NNW,337,7.8,9.2,74,0.00,OVC,,0.00,WeatherDisplay:10.37,2013-06-13 04:32:00,
2013-06-12 23:33:00,61.0,52.7,30.22,NNW,337,8.8,11.5,74,0.00,OVC,,0.00,WeatherDisplay:10.37,2013-06-13 04:33:00,
2013-06-12 23:36:00,61.0,52.7,30.22,NNW,337,8.1,13.0,74,0.00,OVC,,0.00,WeatherDisplay:10.37,2013-06-13 04:36:00,
2013-06-12 23:37:00,61.0,52.7,30.22,NW,315,8.8,12.7,74,0.00,OVC,,0.00,WeatherDisplay:10.37,2013-06-13 04:37:00,
2013-06-12 23:38:00,61.0,52.7,30.22,NNW,337,7.3,10.4,74,0.00,OVC,,0.00,WeatherDisplay:10.37,2013-06-13 04:38:00,
2013-06-12 23:41:00,61.0,52.7,30.22,NNW,337,8.0,15.0,74,0.00,OVC,,0.00,WeatherDisplay:10.37,2013-06-13 04:41:00,
2013-06-12 23:42:00,61.0,52.7,30.22,NW,315,10.0,13.0,74,0.00,OVC,,0.00,WeatherDisplay:10.37,2013-06-13 04:42:00,
2013-06-12 23:43:00,61.0,52.7,30.21,NNW,337,11.3,13.8,74,0.00,OVC,,0.00,WeatherDisplay:10.37,2013-06-13 04:43:00,
2013-06-12 23:46:00,61.0,52.7,30.21,NNW,337,9.5,12.7,74,0.00,OVC,,0.00,WeatherDisplay:10.37,2013-06-13 04:46:00,
2013-06-12 23:48:00,61.0,52.7,30.21,NW,315,7.4,10.4,74,0.00,OVC,,0.00,WeatherDisplay:10.37,2013-06-13 04:48:00,
2013-06-12 23:49:00,61.0,52.7,30.21,NW,315,9.5,11.5,74,0.00,OVC,,0.00,WeatherDisplay:10.37,2013-06-13 04:49:00,
2013-06-12 23:52:00,61.0,52.7,30.21,NNW,337,10.2,12.7,74,0.00,OVC,,0.00,WeatherDisplay:10.37,2013-06-13 04:52:00,
2013-06-12 23:53:00,62.0,53.6,30.21,NNW,337,11.0,13.8,74,0.00,OVC,,0.00,WeatherDisplay:10.37,2013-06-13 04:53:00,
2013-06-12 23:54:00,61.0,52.7,30.21,NW,315,9.1,11.5,74,0.00,OVC,,0.00,WeatherDisplay:10.37,2013-06-13 04:54:00,
2013-06-12 23:57:00,61.0,53.0,30.21,NW,315,10.1,13.8,75,0.00,OVC,,0.00,WeatherDisplay:10.37,2013-06-13 04:57:00,
2013-06-12 23:58:00,61.0,52.7,30.21,NW,315,9.9,13.8,74,0.00,OVC,,0.00,WeatherDisplay:10.37,2013-06-13 04:58:00,
2013-06-12 23:59:00,61.0,53.0,30.21,NW,315,8.0,13.8,75,0.00,OVC,,0.00,WeatherDisplay:10.37,2013-06-13 04:59:00,